QUOTA48 TISX-DGAA
Flight info
| Callsign | QUOTA48 |
|---|---|
| Flight time | 8h 45m |
| Altitude | 33000 |
| Route | OBIKE/M075F330 DCT 1960N DCT MUNTR/N0447F330 DCT 1640N/N0443F350 DCT 13N030W DCT UNIKI/N0438F370 DCT 09N020W DCT TUROT/N0435F390 DCT MONIM DCT INAKA DCT ARMAR UN121 ACC |
| Aircraft | B737/M-SDFGHIM1RWXYZ/LB1 |
Departure
| Time | 2026-04-26 20:23 |
|---|---|
| Airport | Henry E. Rohlsen Airport (TISX) |
Arrival
| Time | 2026-04-27 05:08 |
|---|---|
| Airport | Kotoka International Airport (DGAA) |
| Time | Latitude | Longitude | Altitude | Speed | Heading |
|---|---|---|---|---|---|
| 2026-04-26 19:43 | 17.70015 | -64.79157 | 84 ft | 0 kts | 265° |
| 2026-04-26 20:14 | 17.70015 | -64.79158 | 93 ft | 0 kts | 265° |
| 2026-04-26 20:15 | 17.70018 | -64.79179 | 84 ft | 6 kts | 285° |
| 2026-04-26 20:15 | 17.70044 | -64.79243 | 84 ft | 13 kts | 276° |
| 2026-04-26 20:15 | 17.70074 | -64.79327 | 86 ft | 13 kts | 337° |
| 2026-04-26 20:15 | 17.70095 | -64.79387 | 84 ft | 9 kts | 262° |
| 2026-04-26 20:16 | 17.70087 | -64.79450 | 85 ft | 9 kts | 263° |
| 2026-04-26 20:16 | 17.70079 | -64.79521 | 85 ft | 10 kts | 265° |
| 2026-04-26 20:16 | 17.70073 | -64.79599 | 84 ft | 11 kts | 264° |
| 2026-04-26 20:16 | 17.70065 | -64.79682 | 84 ft | 12 kts | 264° |
| 2026-04-26 20:17 | 17.70057 | -64.79772 | 83 ft | 13 kts | 264° |
| 2026-04-26 20:17 | 17.70049 | -64.79867 | 83 ft | 14 kts | 264° |
| 2026-04-26 20:17 | 17.70039 | -64.79972 | 83 ft | 15 kts | 264° |
| 2026-04-26 20:17 | 17.70032 | -64.80045 | 85 ft | 15 kts | 263° |
| 2026-04-26 20:18 | 17.70016 | -64.80188 | 85 ft | 15 kts | 263° |
| 2026-04-26 20:18 | 17.70005 | -64.80292 | 83 ft | 14 kts | 263° |
| 2026-04-26 20:18 | 17.69995 | -64.80390 | 83 ft | 13 kts | 263° |
| 2026-04-26 20:18 | 17.69985 | -64.80483 | 83 ft | 13 kts | 263° |
| 2026-04-26 20:19 | 17.69976 | -64.80575 | 85 ft | 13 kts | 264° |
| 2026-04-26 20:19 | 17.69967 | -64.80665 | 83 ft | 12 kts | 264° |
| 2026-04-26 20:19 | 17.69959 | -64.80752 | 85 ft | 12 kts | 264° |
| 2026-04-26 20:19 | 17.69949 | -64.80837 | 84 ft | 12 kts | 263° |
| 2026-04-26 20:20 | 17.69940 | -64.80921 | 84 ft | 12 kts | 263° |
| 2026-04-26 20:20 | 17.69930 | -64.81016 | 85 ft | 15 kts | 264° |
| 2026-04-26 20:20 | 17.69919 | -64.81137 | 85 ft | 19 kts | 264° |
| 2026-04-26 20:20 | 17.69903 | -64.81288 | 88 ft | 22 kts | 264° |
| 2026-04-26 20:21 | 17.69886 | -64.81455 | 84 ft | 23 kts | 264° |
| 2026-04-26 20:21 | 17.69898 | -64.81597 | 85 ft | 17 kts | 324° |
| 2026-04-26 20:21 | 17.70002 | -64.81609 | 86 ft | 12 kts | 24° |
| 2026-04-26 20:21 | 17.70018 | -64.81569 | 83 ft | 0 kts | 83° |
| 2026-04-26 20:22 | 17.70018 | -64.81568 | 83 ft | 3 kts | 83° |
| 2026-04-26 20:22 | 17.70046 | -64.81287 | 90 ft | 76 kts | 84° |
| 2026-04-26 20:22 | 17.70126 | -64.80488 | 78 ft | 142 kts | 84° |
| 2026-04-26 20:22 | 17.70234 | -64.79263 | 165 ft | 189 kts | 85° |
| 2026-04-26 20:23 | 17.70338 | -64.77862 | 727 ft | 201 kts | 88° |
| 2026-04-26 20:23 | 17.70478 | -64.76377 | 1494 ft | 204 kts | 84° |
| 2026-04-26 20:23 | 17.70678 | -64.74892 | 2226 ft | 212 kts | 83° |
| 2026-04-26 20:23 | 17.70920 | -64.73260 | 2448 ft | 243 kts | 82° |
| 2026-04-26 20:24 | 17.71206 | -64.71430 | 2923 ft | 261 kts | 76° |
| 2026-04-26 20:24 | 17.71945 | -64.69674 | 3790 ft | 267 kts | 63° |
| 2026-04-26 20:24 | 17.72893 | -64.67959 | 4549 ft | 273 kts | 60° |
| 2026-04-26 20:24 | 17.73861 | -64.66264 | 5374 ft | 275 kts | 61° |
| 2026-04-26 20:25 | 17.74863 | -64.64518 | 6119 ft | 282 kts | 61° |
| 2026-04-26 20:25 | 17.75535 | -64.63348 | 6639 ft | 283 kts | 61° |
| 2026-04-26 20:25 | 17.76905 | -64.60953 | 7594 ft | 289 kts | 60° |
| 2026-04-26 20:25 | 17.77943 | -64.59132 | 8343 ft | 291 kts | 60° |
| 2026-04-26 20:26 | 17.78977 | -64.57312 | 9037 ft | 296 kts | 60° |
| 2026-04-26 20:26 | 17.80040 | -64.55438 | 9793 ft | 298 kts | 60° |
| 2026-04-26 20:26 | 17.81107 | -64.53555 | 10380 ft | 306 kts | 60° |
| 2026-04-26 20:26 | 17.82236 | -64.51558 | 10567 ft | 328 kts | 59° |
| 2026-04-26 20:27 | 17.83426 | -64.49452 | 10748 ft | 349 kts | 59° |
| 2026-04-26 20:27 | 17.84700 | -64.47196 | 10907 ft | 369 kts | 59° |
| 2026-04-26 20:27 | 17.86030 | -64.44839 | 11308 ft | 379 kts | 59° |
| 2026-04-26 20:27 | 17.87387 | -64.42434 | 11820 ft | 385 kts | 59° |
| 2026-04-26 20:28 | 17.88759 | -64.40002 | 12453 ft | 388 kts | 59° |
| 2026-04-26 20:28 | 17.90141 | -64.37550 | 13037 ft | 392 kts | 59° |
| 2026-04-26 20:28 | 17.91522 | -64.35099 | 13560 ft | 397 kts | 59° |
| 2026-04-26 20:28 | 17.92950 | -64.32562 | 14080 ft | 401 kts | 59° |
| 2026-04-26 20:29 | 17.94362 | -64.30054 | 14566 ft | 405 kts | 59° |
| 2026-04-26 20:29 | 17.95803 | -64.27494 | 15052 ft | 409 kts | 59° |
| 2026-04-26 20:29 | 17.97262 | -64.24899 | 15532 ft | 413 kts | 59° |
| 2026-04-26 20:29 | 17.98734 | -64.22282 | 15988 ft | 417 kts | 59° |
| 2026-04-26 20:30 | 18.00216 | -64.19645 | 16458 ft | 421 kts | 59° |
| 2026-04-26 20:30 | 18.01718 | -64.16970 | 16917 ft | 425 kts | 59° |
| 2026-04-26 20:30 | 18.03228 | -64.14281 | 17367 ft | 429 kts | 59° |
| 2026-04-26 20:30 | 18.04752 | -64.11566 | 17815 ft | 433 kts | 59° |
| 2026-04-26 20:31 | 18.06273 | -64.08854 | 18258 ft | 437 kts | 59° |
| 2026-04-26 20:31 | 18.07823 | -64.06090 | 18636 ft | 440 kts | 59° |
| 2026-04-26 20:31 | 18.09384 | -64.03305 | 19016 ft | 443 kts | 59° |
| 2026-04-26 20:31 | 18.10955 | -64.00502 | 19386 ft | 446 kts | 59° |
| 2026-04-26 20:32 | 18.12536 | -63.97678 | 19763 ft | 448 kts | 59° |
| 2026-04-26 20:32 | 18.14101 | -63.94882 | 20122 ft | 451 kts | 59° |
| 2026-04-26 20:32 | 18.15700 | -63.92025 | 20478 ft | 454 kts | 59° |
| 2026-04-26 20:32 | 18.17308 | -63.89150 | 20829 ft | 457 kts | 59° |
| 2026-04-26 20:33 | 18.18924 | -63.86259 | 21172 ft | 459 kts | 59° |
| 2026-04-26 20:33 | 18.20550 | -63.83348 | 21499 ft | 462 kts | 59° |
| 2026-04-26 20:33 | 18.22187 | -63.80418 | 21819 ft | 465 kts | 59° |
| 2026-04-26 20:33 | 18.23816 | -63.77499 | 22087 ft | 469 kts | 59° |
| 2026-04-26 20:34 | 18.25476 | -63.74524 | 22401 ft | 471 kts | 59° |
| 2026-04-26 20:34 | 18.27141 | -63.71539 | 22733 ft | 473 kts | 59° |
| 2026-04-26 20:34 | 18.28815 | -63.68537 | 23042 ft | 475 kts | 59° |
| 2026-04-26 20:34 | 18.30471 | -63.65565 | 23317 ft | 477 kts | 59° |
| 2026-04-26 20:35 | 18.32154 | -63.62543 | 23579 ft | 480 kts | 60° |
| 2026-04-26 20:35 | 18.33855 | -63.59488 | 23809 ft | 482 kts | 59° |
| 2026-04-26 20:35 | 18.35556 | -63.56431 | 24047 ft | 484 kts | 60° |
| 2026-04-26 20:35 | 18.37259 | -63.53369 | 24281 ft | 485 kts | 60° |
| 2026-04-26 20:36 | 18.38972 | -63.50287 | 24505 ft | 487 kts | 60° |
| 2026-04-26 20:36 | 18.40663 | -63.47243 | 24721 ft | 489 kts | 60° |
| 2026-04-26 20:36 | 18.42388 | -63.44139 | 24945 ft | 491 kts | 60° |
| 2026-04-26 20:36 | 18.44120 | -63.41018 | 25157 ft | 493 kts | 60° |
| 2026-04-26 20:37 | 18.45856 | -63.37888 | 25369 ft | 494 kts | 59° |
| 2026-04-26 20:37 | 18.47603 | -63.34737 | 25536 ft | 498 kts | 59° |
| 2026-04-26 20:37 | 18.49329 | -63.31623 | 25720 ft | 500 kts | 59° |
| 2026-04-26 20:37 | 18.51083 | -63.28457 | 25939 ft | 501 kts | 59° |
| 2026-04-26 20:38 | 18.52846 | -63.25274 | 26153 ft | 502 kts | 59° |
| 2026-04-26 20:38 | 18.54608 | -63.22089 | 26346 ft | 504 kts | 59° |
| 2026-04-26 20:38 | 18.56379 | -63.18888 | 26535 ft | 506 kts | 59° |
| 2026-04-26 20:38 | 18.58156 | -63.15674 | 26725 ft | 507 kts | 59° |
| 2026-04-26 20:39 | 18.59935 | -63.12454 | 26915 ft | 509 kts | 59° |
| 2026-04-26 20:39 | 18.61115 | -63.10318 | 27021 ft | 510 kts | 60° |
| 2026-04-26 20:39 | 18.63510 | -63.05978 | 27259 ft | 512 kts | 60° |
| 2026-04-26 20:39 | 18.65307 | -63.02722 | 27441 ft | 514 kts | 60° |
| 2026-04-26 20:40 | 18.67103 | -62.99464 | 27612 ft | 515 kts | 60° |
| 2026-04-26 20:40 | 18.68885 | -62.96232 | 27772 ft | 516 kts | 60° |
| 2026-04-26 20:40 | 18.70694 | -62.92947 | 27966 ft | 517 kts | 59° |
| 2026-04-26 20:40 | 18.72512 | -62.89645 | 28190 ft | 518 kts | 59° |
| 2026-04-26 20:41 | 18.74319 | -62.86360 | 28458 ft | 517 kts | 59° |
| 2026-04-26 20:41 | 18.76122 | -62.83083 | 28735 ft | 516 kts | 59° |
| 2026-04-26 20:41 | 18.77313 | -62.80915 | 28902 ft | 516 kts | 59° |
| 2026-04-26 20:41 | 18.79709 | -62.76555 | 29178 ft | 517 kts | 60° |
| 2026-04-26 20:42 | 18.81515 | -62.73265 | 29426 ft | 517 kts | 60° |
| 2026-04-26 20:42 | 18.83317 | -62.69981 | 29720 ft | 517 kts | 60° |
| 2026-04-26 20:42 | 18.84511 | -62.67805 | 29919 ft | 516 kts | 60° |
| 2026-04-26 20:42 | 18.86312 | -62.64520 | 30164 ft | 516 kts | 60° |
| 2026-04-26 20:43 | 18.88112 | -62.61235 | 30375 ft | 517 kts | 59° |
| 2026-04-26 20:43 | 18.89917 | -62.57939 | 30598 ft | 516 kts | 59° |
| 2026-04-26 20:43 | 18.91718 | -62.54650 | 30839 ft | 516 kts | 59° |
| 2026-04-26 20:43 | 18.93514 | -62.51367 | 31078 ft | 516 kts | 59° |
| 2026-04-26 20:44 | 18.95291 | -62.48117 | 31278 ft | 517 kts | 59° |
| 2026-04-26 20:44 | 18.97098 | -62.44812 | 31491 ft | 518 kts | 59° |
| 2026-04-26 20:44 | 18.98900 | -62.41512 | 31745 ft | 517 kts | 59° |
| 2026-04-26 20:44 | 19.00682 | -62.38248 | 32014 ft | 517 kts | 59° |
| 2026-04-26 20:45 | 19.02478 | -62.34956 | 32251 ft | 517 kts | 59° |
| 2026-04-26 20:45 | 19.04276 | -62.31659 | 32473 ft | 517 kts | 59° |
| 2026-04-26 20:45 | 19.06075 | -62.28359 | 32724 ft | 517 kts | 59° |
| 2026-04-26 20:45 | 19.07868 | -62.25068 | 32968 ft | 517 kts | 59° |
| 2026-04-26 20:46 | 19.09670 | -62.21759 | 32987 ft | 519 kts | 59° |
| 2026-04-26 20:46 | 19.13244 | -62.15187 | 32993 ft | 516 kts | 60° |
| 2026-04-26 20:47 | 19.16812 | -62.08621 | 32997 ft | 512 kts | 60° |
| 2026-04-26 20:47 | 19.20358 | -62.02088 | 33002 ft | 509 kts | 60° |
| 2026-04-26 20:48 | 19.23880 | -61.95593 | 33005 ft | 508 kts | 60° |
| 2026-04-26 20:48 | 19.27376 | -61.89137 | 33008 ft | 510 kts | 60° |
| 2026-04-26 20:49 | 19.30931 | -61.82564 | 33008 ft | 517 kts | 61° |
| 2026-04-26 20:49 | 19.32414 | -61.79088 | 32988 ft | 517 kts | 75° |
| 2026-04-26 20:49 | 19.33151 | -61.75419 | 33018 ft | 513 kts | 87° |
| 2026-04-26 20:49 | 19.33232 | -61.71666 | 32998 ft | 508 kts | 99° |
| 2026-04-26 20:50 | 19.32651 | -61.68001 | 33034 ft | 503 kts | 106° |
| 2026-04-26 20:50 | 19.31177 | -61.60725 | 33013 ft | 505 kts | 106° |
| 2026-04-26 20:51 | 19.29730 | -61.53490 | 33001 ft | 506 kts | 106° |
| 2026-04-26 20:51 | 19.28326 | -61.46187 | 33005 ft | 505 kts | 105° |
| 2026-04-26 20:52 | 19.26944 | -61.38888 | 33013 ft | 504 kts | 105° |
| 2026-04-26 20:52 | 19.25573 | -61.31650 | 33008 ft | 503 kts | 105° |
| 2026-04-26 20:53 | 19.24190 | -61.24381 | 33011 ft | 502 kts | 105° |
| 2026-04-26 20:53 | 19.22803 | -61.17124 | 33018 ft | 502 kts | 105° |
| 2026-04-26 20:54 | 19.21422 | -61.09918 | 33019 ft | 501 kts | 105° |
| 2026-04-26 20:54 | 19.20039 | -61.02711 | 33009 ft | 501 kts | 105° |
| 2026-04-26 20:55 | 19.18644 | -60.95458 | 33019 ft | 502 kts | 105° |
| 2026-04-26 20:55 | 19.17254 | -60.88250 | 33016 ft | 502 kts | 105° |
| 2026-04-26 20:56 | 19.15854 | -60.81003 | 33026 ft | 503 kts | 105° |
| 2026-04-26 20:56 | 19.14447 | -60.73736 | 33017 ft | 504 kts | 105° |
| 2026-04-26 20:57 | 19.13037 | -60.66469 | 33018 ft | 505 kts | 105° |
| 2026-04-26 20:57 | 19.11631 | -60.59234 | 33019 ft | 505 kts | 105° |
| 2026-04-26 20:58 | 19.10208 | -60.51935 | 33018 ft | 505 kts | 105° |
| 2026-04-26 20:58 | 19.08792 | -60.44681 | 33018 ft | 505 kts | 105° |
| 2026-04-26 20:59 | 19.07365 | -60.37387 | 33013 ft | 505 kts | 105° |
| 2026-04-26 20:59 | 19.05945 | -60.30147 | 33020 ft | 504 kts | 105° |
| 2026-04-26 21:00 | 19.04517 | -60.22886 | 33018 ft | 504 kts | 105° |
| 2026-04-26 21:00 | 19.03089 | -60.15633 | 33027 ft | 502 kts | 105° |
| 2026-04-26 21:01 | 19.01674 | -60.08461 | 33030 ft | 501 kts | 105° |
| 2026-04-26 21:01 | 19.00249 | -60.01257 | 33019 ft | 500 kts | 105° |
| 2026-04-26 21:02 | 18.99363 | -59.93935 | 33028 ft | 502 kts | 97° |
| 2026-04-26 21:02 | 18.98901 | -59.86617 | 33032 ft | 501 kts | 96° |
| 2026-04-26 21:03 | 18.98455 | -59.79364 | 33017 ft | 489 kts | 96° |
| 2026-04-26 21:03 | 18.97954 | -59.72187 | 33038 ft | 489 kts | 97° |
| 2026-04-26 21:04 | 18.97422 | -59.65053 | 33040 ft | 490 kts | 97° |
| 2026-04-26 21:04 | 18.96876 | -59.57846 | 33041 ft | 491 kts | 97° |
| 2026-04-26 21:05 | 18.96330 | -59.50646 | 33023 ft | 491 kts | 97° |
| 2026-04-26 21:05 | 18.95788 | -59.43504 | 33021 ft | 489 kts | 97° |
| 2026-04-26 21:06 | 18.95242 | -59.36337 | 33030 ft | 488 kts | 97° |
| 2026-04-26 21:06 | 18.94694 | -59.29188 | 33014 ft | 487 kts | 97° |
| 2026-04-26 21:07 | 18.94145 | -59.22071 | 33038 ft | 488 kts | 97° |
| 2026-04-26 21:07 | 18.93589 | -59.14892 | 33044 ft | 491 kts | 97° |
| 2026-04-26 21:08 | 18.93028 | -59.07684 | 33049 ft | 493 kts | 97° |
| 2026-04-26 21:08 | 18.92460 | -59.00429 | 33040 ft | 496 kts | 97° |
| 2026-04-26 21:09 | 18.91889 | -58.93155 | 33042 ft | 497 kts | 97° |
| 2026-04-26 21:09 | 18.91316 | -58.85906 | 33039 ft | 498 kts | 97° |
| 2026-04-26 21:10 | 18.90738 | -58.78616 | 33040 ft | 497 kts | 97° |
| 2026-04-26 21:10 | 18.90158 | -58.71344 | 33038 ft | 496 kts | 97° |
| 2026-04-26 21:11 | 18.89579 | -58.64110 | 33043 ft | 494 kts | 97° |
| 2026-04-26 21:11 | 18.88996 | -58.56880 | 33044 ft | 493 kts | 97° |
| 2026-04-26 21:12 | 18.88412 | -58.49667 | 33042 ft | 492 kts | 97° |
| 2026-04-26 21:12 | 18.87828 | -58.42490 | 33038 ft | 491 kts | 97° |
| 2026-04-26 21:13 | 18.87240 | -58.35293 | 33047 ft | 491 kts | 97° |
| 2026-04-26 21:13 | 18.86652 | -58.28142 | 33054 ft | 492 kts | 97° |
| 2026-04-26 21:14 | 18.86056 | -58.20921 | 33047 ft | 493 kts | 97° |
| 2026-04-26 21:14 | 18.85455 | -58.13678 | 33054 ft | 496 kts | 97° |
| 2026-04-26 21:15 | 18.84852 | -58.06436 | 33055 ft | 499 kts | 97° |
| 2026-04-26 21:15 | 18.84238 | -57.99099 | 33052 ft | 502 kts | 97° |
| 2026-04-26 21:16 | 18.83618 | -57.91733 | 33053 ft | 504 kts | 97° |
| 2026-04-26 21:16 | 18.82992 | -57.84313 | 33050 ft | 507 kts | 96° |
| 2026-04-26 21:17 | 18.82366 | -57.76945 | 33050 ft | 508 kts | 97° |
| 2026-04-26 21:17 | 18.81732 | -57.69507 | 33048 ft | 508 kts | 97° |
| 2026-04-26 21:18 | 18.81099 | -57.62117 | 33041 ft | 508 kts | 96° |
| 2026-04-26 21:18 | 18.80459 | -57.54681 | 33048 ft | 507 kts | 96° |
| 2026-04-26 21:19 | 18.79818 | -57.47270 | 33052 ft | 507 kts | 96° |
| 2026-04-26 21:19 | 18.79174 | -57.39858 | 33051 ft | 506 kts | 96° |
| 2026-04-26 21:20 | 18.78532 | -57.32503 | 33057 ft | 506 kts | 96° |
| 2026-04-26 21:20 | 18.77883 | -57.25099 | 33062 ft | 506 kts | 96° |
| 2026-04-26 21:21 | 18.77230 | -57.17697 | 33058 ft | 506 kts | 96° |
| 2026-04-26 21:21 | 18.76574 | -57.10284 | 33042 ft | 506 kts | 97° |
| 2026-04-26 21:22 | 18.75921 | -57.02930 | 33059 ft | 506 kts | 97° |
| 2026-04-26 21:22 | 18.75259 | -56.95517 | 33060 ft | 506 kts | 97° |
| 2026-04-26 21:23 | 18.74265 | -56.84456 | 33060 ft | 506 kts | 97° |
| 2026-04-26 21:23 | 18.73595 | -56.77033 | 33060 ft | 506 kts | 97° |
| 2026-04-26 21:24 | 18.72923 | -56.69627 | 33059 ft | 506 kts | 97° |
| 2026-04-26 21:24 | 18.72252 | -56.62255 | 33062 ft | 506 kts | 97° |
| 2026-04-26 21:25 | 18.71574 | -56.54852 | 33067 ft | 506 kts | 97° |
| 2026-04-26 21:25 | 18.70896 | -56.47471 | 33058 ft | 505 kts | 97° |
| 2026-04-26 21:26 | 18.70219 | -56.40134 | 33061 ft | 503 kts | 97° |
| 2026-04-26 21:26 | 18.69538 | -56.32790 | 33062 ft | 502 kts | 97° |
| 2026-04-26 21:27 | 18.68860 | -56.25504 | 33060 ft | 501 kts | 97° |
| 2026-04-26 21:27 | 18.68174 | -56.18166 | 33077 ft | 503 kts | 97° |
| 2026-04-26 21:28 | 18.67486 | -56.10846 | 33075 ft | 505 kts | 97° |
| 2026-04-26 21:28 | 18.66905 | -56.04680 | 33073 ft | 507 kts | 97° |
| 2026-04-26 21:29 | 18.66204 | -55.97269 | 33071 ft | 509 kts | 97° |
| 2026-04-26 21:29 | 18.65497 | -55.89825 | 33072 ft | 510 kts | 97° |
| 2026-04-26 21:30 | 18.64790 | -55.82417 | 33069 ft | 511 kts | 97° |
| 2026-04-26 21:30 | 18.64077 | -55.74966 | 33074 ft | 510 kts | 97° |
| 2026-04-26 21:31 | 18.63365 | -55.67565 | 33062 ft | 508 kts | 97° |
| 2026-04-26 21:31 | 18.62649 | -55.60155 | 33062 ft | 506 kts | 97° |
| 2026-04-26 21:32 | 18.61933 | -55.52777 | 33066 ft | 504 kts | 97° |
| 2026-04-26 21:32 | 18.61218 | -55.45428 | 33072 ft | 502 kts | 97° |
| 2026-04-26 21:33 | 18.60507 | -55.38162 | 33067 ft | 500 kts | 97° |
| 2026-04-26 21:33 | 18.59793 | -55.30888 | 33069 ft | 498 kts | 97° |
| 2026-04-26 21:34 | 18.59075 | -55.23606 | 33069 ft | 497 kts | 97° |
| 2026-04-26 21:34 | 18.58363 | -55.16417 | 33074 ft | 496 kts | 97° |
| 2026-04-26 21:35 | 18.57644 | -55.09177 | 33078 ft | 496 kts | 97° |
| 2026-04-26 21:35 | 18.56921 | -55.01936 | 33075 ft | 496 kts | 97° |
| 2026-04-26 21:36 | 18.56195 | -54.94690 | 33084 ft | 497 kts | 97° |
| 2026-04-26 21:36 | 18.55471 | -54.87481 | 33075 ft | 497 kts | 97° |
| 2026-04-26 21:37 | 18.54736 | -54.80203 | 33077 ft | 497 kts | 97° |
| 2026-04-26 21:37 | 18.54005 | -54.72982 | 33079 ft | 497 kts | 97° |
| 2026-04-26 21:38 | 18.53269 | -54.65744 | 33076 ft | 496 kts | 97° |
| 2026-04-26 21:38 | 18.52532 | -54.58522 | 33075 ft | 495 kts | 97° |
| 2026-04-26 21:39 | 18.51798 | -54.51358 | 33079 ft | 493 kts | 97° |
| 2026-04-26 21:39 | 18.51057 | -54.44160 | 33076 ft | 492 kts | 97° |
| 2026-04-26 21:40 | 18.50317 | -54.36993 | 33079 ft | 491 kts | 97° |
| 2026-04-26 21:40 | 18.49581 | -54.29888 | 33077 ft | 491 kts | 97° |
| 2026-04-26 21:41 | 18.48836 | -54.22731 | 33082 ft | 491 kts | 97° |
| 2026-04-26 21:41 | 18.48090 | -54.15583 | 33085 ft | 491 kts | 97° |
| 2026-04-26 21:42 | 18.47339 | -54.08416 | 33081 ft | 492 kts | 97° |
| 2026-04-26 21:42 | 18.46584 | -54.01237 | 33076 ft | 493 kts | 97° |
| 2026-04-26 21:43 | 18.45830 | -53.94097 | 33080 ft | 493 kts | 97° |
| 2026-04-26 21:43 | 18.45067 | -53.86892 | 33080 ft | 494 kts | 97° |
| 2026-04-26 21:44 | 18.44299 | -53.79674 | 33083 ft | 495 kts | 97° |
| 2026-04-26 21:44 | 18.43534 | -53.72503 | 33073 ft | 496 kts | 97° |
| 2026-04-26 21:45 | 18.43020 | -53.67705 | 33077 ft | 497 kts | 97° |
| 2026-04-26 21:45 | 18.42313 | -53.61119 | 33088 ft | 498 kts | 97° |
| 2026-04-26 21:46 | 18.41529 | -53.53838 | 33084 ft | 499 kts | 97° |
| 2026-04-26 21:46 | 18.40746 | -53.46597 | 33086 ft | 500 kts | 97° |
| 2026-04-26 21:47 | 18.39956 | -53.39312 | 33080 ft | 500 kts | 97° |
| 2026-04-26 21:47 | 18.39162 | -53.32020 | 33080 ft | 500 kts | 97° |
| 2026-04-26 21:48 | 18.38370 | -53.24772 | 33081 ft | 500 kts | 97° |
| 2026-04-26 21:48 | 18.37572 | -53.17494 | 33084 ft | 499 kts | 97° |
| 2026-04-26 21:49 | 18.36777 | -53.10272 | 33084 ft | 499 kts | 97° |
| 2026-04-26 21:49 | 18.35975 | -53.03009 | 33084 ft | 498 kts | 97° |
| 2026-04-26 21:50 | 18.35307 | -52.96977 | 33074 ft | 498 kts | 97° |
| 2026-04-26 21:50 | 18.34370 | -52.88548 | 33086 ft | 498 kts | 97° |
| 2026-04-26 21:51 | 18.33558 | -52.81276 | 33087 ft | 499 kts | 97° |
| 2026-04-26 21:51 | 18.32744 | -52.74003 | 33083 ft | 499 kts | 97° |
| 2026-04-26 21:52 | 18.31931 | -52.66776 | 33089 ft | 500 kts | 97° |
| 2026-04-26 21:52 | 18.31110 | -52.59495 | 33083 ft | 500 kts | 97° |
| 2026-04-26 21:53 | 18.30287 | -52.52219 | 33084 ft | 501 kts | 97° |
| 2026-04-26 21:53 | 18.29460 | -52.44935 | 33085 ft | 501 kts | 97° |
| 2026-04-26 21:54 | 18.28630 | -52.37652 | 33087 ft | 501 kts | 97° |
| 2026-04-26 21:54 | 18.27801 | -52.30399 | 33088 ft | 501 kts | 97° |
| 2026-04-26 21:55 | 18.26965 | -52.23116 | 33081 ft | 500 kts | 97° |
| 2026-04-26 21:55 | 18.26127 | -52.15831 | 33084 ft | 500 kts | 97° |
| 2026-04-26 21:56 | 18.25287 | -52.08558 | 33094 ft | 500 kts | 97° |
| 2026-04-26 21:56 | 18.24448 | -52.01319 | 33087 ft | 500 kts | 97° |
| 2026-04-26 21:57 | 18.23601 | -51.94037 | 33083 ft | 500 kts | 97° |
| 2026-04-26 21:57 | 18.22760 | -51.86828 | 33089 ft | 499 kts | 97° |
| 2026-04-26 21:58 | 18.21910 | -51.79569 | 33088 ft | 499 kts | 97° |
| 2026-04-26 21:58 | 18.21058 | -51.72311 | 33089 ft | 499 kts | 97° |
| 2026-04-26 21:59 | 18.20209 | -51.65105 | 33090 ft | 499 kts | 97° |
| 2026-04-26 21:59 | 18.19352 | -51.57852 | 33090 ft | 499 kts | 97° |
| 2026-04-26 22:00 | 18.18496 | -51.50640 | 33092 ft | 499 kts | 97° |
| 2026-04-26 22:00 | 18.17632 | -51.43377 | 33093 ft | 499 kts | 97° |
| 2026-04-26 22:01 | 18.16768 | -51.36133 | 33089 ft | 500 kts | 98° |
| 2026-04-26 22:01 | 18.15903 | -51.28915 | 33098 ft | 500 kts | 97° |
| 2026-04-26 22:02 | 18.15177 | -51.22868 | 33096 ft | 501 kts | 97° |
| 2026-04-26 22:02 | 18.14149 | -51.14335 | 33092 ft | 503 kts | 98° |
| 2026-04-26 22:03 | 18.13272 | -51.07079 | 33088 ft | 503 kts | 98° |
| 2026-04-26 22:03 | 18.12384 | -50.99764 | 33088 ft | 504 kts | 98° |
| 2026-04-26 22:04 | 18.11494 | -50.92451 | 33094 ft | 504 kts | 98° |
| 2026-04-26 22:04 | 18.10607 | -50.85180 | 33087 ft | 503 kts | 98° |
| 2026-04-26 22:05 | 18.09711 | -50.77864 | 33092 ft | 503 kts | 98° |
| 2026-04-26 22:05 | 18.08821 | -50.70622 | 33093 ft | 502 kts | 98° |
| 2026-04-26 22:06 | 18.07923 | -50.63337 | 33092 ft | 502 kts | 98° |
| 2026-04-26 22:06 | 18.07024 | -50.56062 | 33091 ft | 501 kts | 98° |
| 2026-04-26 22:07 | 18.06123 | -50.48800 | 33089 ft | 501 kts | 98° |
| 2026-04-26 22:07 | 18.05371 | -50.42751 | 33088 ft | 501 kts | 98° |
| 2026-04-26 22:08 | 18.04318 | -50.34310 | 33091 ft | 501 kts | 98° |
| 2026-04-26 22:08 | 18.03409 | -50.27047 | 33093 ft | 501 kts | 98° |
| 2026-04-26 22:09 | 18.02501 | -50.19815 | 33094 ft | 501 kts | 98° |
| 2026-04-26 22:09 | 18.01585 | -50.12543 | 33093 ft | 501 kts | 98° |
| 2026-04-26 22:10 | 18.00668 | -50.05278 | 33093 ft | 501 kts | 98° |
| 2026-04-26 22:10 | 17.99731 | -49.98013 | 33095 ft | 501 kts | 99° |
| 2026-04-26 22:11 | 17.98529 | -49.90841 | 33100 ft | 501 kts | 101° |
| 2026-04-26 22:11 | 17.97205 | -49.83630 | 33097 ft | 501 kts | 101° |
| 2026-04-26 22:12 | 17.95913 | -49.76470 | 33096 ft | 502 kts | 101° |
| 2026-04-26 22:12 | 17.94642 | -49.69255 | 33096 ft | 501 kts | 101° |
| 2026-04-26 22:13 | 17.93382 | -49.62044 | 33097 ft | 501 kts | 101° |
| 2026-04-26 22:13 | 17.92120 | -49.54832 | 33098 ft | 501 kts | 101° |
| 2026-04-26 22:14 | 17.90866 | -49.47687 | 33098 ft | 501 kts | 101° |
| 2026-04-26 22:14 | 17.89596 | -49.40481 | 33094 ft | 500 kts | 101° |
| 2026-04-26 22:15 | 17.88960 | -49.36879 | 33099 ft | 500 kts | 101° |
| 2026-04-26 22:15 | 17.87591 | -49.29137 | 33093 ft | 500 kts | 101° |
| 2026-04-26 22:16 | 17.86534 | -49.23166 | 33096 ft | 500 kts | 101° |
| 2026-04-26 22:16 | 17.85259 | -49.15987 | 33095 ft | 499 kts | 101° |
| 2026-04-26 22:17 | 17.83984 | -49.08821 | 33095 ft | 499 kts | 101° |
| 2026-04-26 22:17 | 17.82713 | -49.01690 | 33095 ft | 500 kts | 101° |
| 2026-04-26 22:18 | 17.81427 | -48.94496 | 33095 ft | 500 kts | 101° |
| 2026-04-26 22:18 | 17.80150 | -48.87363 | 33096 ft | 501 kts | 101° |
| 2026-04-26 22:19 | 17.78858 | -48.80165 | 33095 ft | 501 kts | 101° |
| 2026-04-26 22:19 | 17.77564 | -48.72971 | 33096 ft | 502 kts | 101° |
| 2026-04-26 22:20 | 17.76272 | -48.65805 | 33108 ft | 502 kts | 101° |
| 2026-04-26 22:20 | 17.74969 | -48.58592 | 33097 ft | 503 kts | 101° |
| 2026-04-26 22:21 | 17.73663 | -48.51378 | 33097 ft | 503 kts | 101° |
| 2026-04-26 22:21 | 17.72352 | -48.44152 | 33096 ft | 503 kts | 101° |
| 2026-04-26 22:22 | 17.71049 | -48.36985 | 33100 ft | 503 kts | 101° |
| 2026-04-26 22:22 | 17.69733 | -48.29760 | 33100 ft | 503 kts | 101° |
| 2026-04-26 22:23 | 17.68414 | -48.22539 | 33098 ft | 503 kts | 101° |
| 2026-04-26 22:23 | 17.67094 | -48.15328 | 33098 ft | 503 kts | 101° |
| 2026-04-26 22:24 | 17.65779 | -48.08153 | 33100 ft | 503 kts | 101° |
| 2026-04-26 22:24 | 17.64454 | -48.00946 | 33094 ft | 502 kts | 101° |
| 2026-04-26 22:25 | 17.63131 | -47.93761 | 33095 ft | 502 kts | 101° |
| 2026-04-26 22:25 | 17.61812 | -47.86612 | 33097 ft | 502 kts | 101° |
| 2026-04-26 22:26 | 17.60482 | -47.79422 | 33094 ft | 502 kts | 101° |
| 2026-04-26 22:26 | 17.59151 | -47.72241 | 33097 ft | 501 kts | 102° |
| 2026-04-26 22:27 | 17.57818 | -47.65061 | 33097 ft | 501 kts | 102° |
| 2026-04-26 22:27 | 17.56488 | -47.57917 | 33100 ft | 501 kts | 102° |
| 2026-04-26 22:28 | 17.55146 | -47.50720 | 33096 ft | 501 kts | 102° |
| 2026-04-26 22:28 | 17.53812 | -47.43584 | 33096 ft | 501 kts | 102° |
| 2026-04-26 22:29 | 17.52466 | -47.36394 | 33096 ft | 501 kts | 102° |
| 2026-04-26 22:29 | 17.51121 | -47.29225 | 33101 ft | 501 kts | 102° |
| 2026-04-26 22:30 | 17.49779 | -47.22090 | 33103 ft | 501 kts | 102° |
| 2026-04-26 22:30 | 17.48426 | -47.14910 | 33106 ft | 501 kts | 102° |
| 2026-04-26 22:31 | 17.47075 | -47.07753 | 33104 ft | 501 kts | 102° |
| 2026-04-26 22:31 | 17.45727 | -47.00631 | 33104 ft | 501 kts | 102° |
| 2026-04-26 22:32 | 17.44370 | -46.93474 | 33109 ft | 500 kts | 101° |
| 2026-04-26 22:32 | 17.43008 | -46.86303 | 33103 ft | 500 kts | 101° |
| 2026-04-26 22:33 | 17.40976 | -46.75633 | 33104 ft | 499 kts | 102° |
| 2026-04-26 22:34 | 17.39614 | -46.68500 | 33107 ft | 499 kts | 102° |
| 2026-04-26 22:34 | 17.38257 | -46.61404 | 33106 ft | 498 kts | 102° |
| 2026-04-26 22:35 | 17.36892 | -46.54286 | 33102 ft | 498 kts | 101° |
| 2026-04-26 22:35 | 17.35522 | -46.47154 | 33104 ft | 498 kts | 101° |
| 2026-04-26 22:36 | 17.34162 | -46.40087 | 33098 ft | 498 kts | 102° |
| 2026-04-26 22:36 | 17.32787 | -46.32955 | 33104 ft | 497 kts | 101° |
| 2026-04-26 22:37 | 17.31423 | -46.25896 | 33102 ft | 497 kts | 101° |
| 2026-04-26 22:37 | 17.30047 | -46.18789 | 33100 ft | 497 kts | 102° |
| 2026-04-26 22:38 | 17.28677 | -46.11724 | 33103 ft | 497 kts | 101° |
| 2026-04-26 22:38 | 17.27296 | -46.04619 | 33099 ft | 497 kts | 102° |
| 2026-04-26 22:39 | 17.25923 | -45.97568 | 33107 ft | 497 kts | 102° |
| 2026-04-26 22:39 | 17.24538 | -45.90473 | 33107 ft | 496 kts | 102° |
| 2026-04-26 22:40 | 17.23154 | -45.83392 | 33100 ft | 496 kts | 102° |
| 2026-04-26 22:40 | 17.21778 | -45.76365 | 33104 ft | 495 kts | 102° |
| 2026-04-26 22:41 | 17.20389 | -45.69288 | 33100 ft | 495 kts | 102° |
| 2026-04-26 22:41 | 17.19002 | -45.62238 | 33103 ft | 494 kts | 102° |
| 2026-04-26 22:42 | 17.17625 | -45.55248 | 33107 ft | 494 kts | 102° |
| 2026-04-26 22:42 | 17.16235 | -45.48202 | 33102 ft | 494 kts | 102° |
| 2026-04-26 22:43 | 17.14843 | -45.41165 | 33104 ft | 493 kts | 102° |
| 2026-04-26 22:43 | 17.13457 | -45.34171 | 33103 ft | 493 kts | 102° |
| 2026-04-26 22:44 | 17.12063 | -45.27145 | 33100 ft | 493 kts | 102° |
| 2026-04-26 22:44 | 17.10666 | -45.20121 | 33105 ft | 494 kts | 102° |
| 2026-04-26 22:45 | 17.09262 | -45.13077 | 33106 ft | 494 kts | 102° |
| 2026-04-26 22:45 | 17.08507 | -45.09292 | 33103 ft | 494 kts | 102° |
| 2026-04-26 22:46 | 17.07098 | -45.02242 | 33099 ft | 494 kts | 102° |
| 2026-04-26 22:46 | 17.05695 | -44.95233 | 33097 ft | 494 kts | 102° |
| 2026-04-26 22:47 | 17.04282 | -44.88187 | 33103 ft | 494 kts | 102° |
| 2026-04-26 22:47 | 17.02868 | -44.81152 | 33100 ft | 494 kts | 102° |
| 2026-04-26 22:48 | 17.01462 | -44.74168 | 33097 ft | 493 kts | 102° |
| 2026-04-26 22:48 | 17.00047 | -44.67152 | 33098 ft | 492 kts | 102° |
| 2026-04-26 22:49 | 16.98629 | -44.60138 | 33102 ft | 492 kts | 102° |
| 2026-04-26 22:49 | 16.97221 | -44.53179 | 33101 ft | 492 kts | 102° |
| 2026-04-26 22:50 | 16.95798 | -44.46164 | 33101 ft | 492 kts | 102° |
| 2026-04-26 22:50 | 16.94383 | -44.39202 | 33092 ft | 492 kts | 102° |
| 2026-04-26 22:51 | 16.92959 | -44.32206 | 33102 ft | 492 kts | 102° |
| 2026-04-26 22:51 | 16.91541 | -44.25251 | 33100 ft | 492 kts | 102° |
| 2026-04-26 22:52 | 16.90113 | -44.18261 | 33102 ft | 492 kts | 102° |
| 2026-04-26 22:52 | 16.88681 | -44.11267 | 33101 ft | 492 kts | 102° |
| 2026-04-26 22:53 | 16.87255 | -44.04311 | 33098 ft | 492 kts | 102° |
| 2026-04-26 22:53 | 16.85821 | -43.97330 | 33102 ft | 492 kts | 102° |
| 2026-04-26 22:54 | 16.84381 | -43.90329 | 33101 ft | 492 kts | 102° |
| 2026-04-26 22:54 | 16.82940 | -43.83340 | 33104 ft | 492 kts | 102° |
| 2026-04-26 22:55 | 16.81504 | -43.76388 | 33093 ft | 492 kts | 102° |
| 2026-04-26 22:55 | 16.80059 | -43.69403 | 33102 ft | 491 kts | 102° |
| 2026-04-26 22:56 | 16.78621 | -43.62464 | 33104 ft | 491 kts | 102° |
| 2026-04-26 22:56 | 16.77172 | -43.55485 | 33099 ft | 491 kts | 102° |
| 2026-04-26 22:57 | 16.75719 | -43.48498 | 33101 ft | 491 kts | 102° |
| 2026-04-26 22:57 | 16.74277 | -43.41576 | 33101 ft | 491 kts | 102° |
| 2026-04-26 22:58 | 16.72820 | -43.34596 | 33096 ft | 491 kts | 102° |
| 2026-04-26 22:58 | 16.71371 | -43.27667 | 33101 ft | 490 kts | 102° |
| 2026-04-26 22:59 | 16.69914 | -43.20709 | 33099 ft | 490 kts | 102° |
| 2026-04-26 22:59 | 16.68457 | -43.13767 | 33100 ft | 489 kts | 102° |
| 2026-04-26 23:00 | 16.67007 | -43.06868 | 33096 ft | 488 kts | 102° |
| 2026-04-26 23:00 | 16.65549 | -42.99941 | 33100 ft | 488 kts | 102° |
| 2026-04-26 23:01 | 16.64099 | -42.93065 | 33105 ft | 488 kts | 102° |
| 2026-04-26 23:01 | 16.62636 | -42.86143 | 33098 ft | 488 kts | 102° |
| 2026-04-26 23:02 | 16.61174 | -42.79233 | 33100 ft | 488 kts | 102° |
| 2026-04-26 23:02 | 16.59713 | -42.72342 | 33100 ft | 488 kts | 102° |
| 2026-04-26 23:03 | 16.58491 | -42.66585 | 33098 ft | 488 kts | 102° |
| 2026-04-26 23:03 | 16.57021 | -42.59675 | 33103 ft | 488 kts | 102° |
| 2026-04-26 23:04 | 16.55546 | -42.52750 | 33101 ft | 488 kts | 102° |
| 2026-04-26 23:04 | 16.54081 | -42.45882 | 33101 ft | 487 kts | 102° |
| 2026-04-26 23:05 | 16.52604 | -42.38973 | 33106 ft | 487 kts | 102° |
| 2026-04-26 23:05 | 16.51129 | -42.32084 | 33104 ft | 487 kts | 102° |
| 2026-04-26 23:06 | 16.49658 | -42.25224 | 33106 ft | 487 kts | 102° |
| 2026-04-26 23:06 | 16.48176 | -42.18325 | 33108 ft | 487 kts | 102° |
| 2026-04-26 23:07 | 16.46692 | -42.11432 | 33100 ft | 486 kts | 102° |
| 2026-04-26 23:07 | 16.45217 | -42.04587 | 33103 ft | 486 kts | 102° |
| 2026-04-26 23:08 | 16.43733 | -41.97713 | 33105 ft | 485 kts | 102° |
| 2026-04-26 23:08 | 16.42258 | -41.90894 | 33106 ft | 485 kts | 102° |
| 2026-04-26 23:09 | 16.40769 | -41.84018 | 33112 ft | 485 kts | 102° |
| 2026-04-26 23:09 | 16.39290 | -41.77203 | 33108 ft | 485 kts | 102° |
| 2026-04-26 23:10 | 16.37799 | -41.70339 | 33106 ft | 485 kts | 102° |
| 2026-04-26 23:10 | 16.36306 | -41.63480 | 33108 ft | 485 kts | 102° |
| 2026-04-26 23:11 | 16.34820 | -41.56669 | 33107 ft | 486 kts | 102° |
| 2026-04-26 23:11 | 16.33317 | -41.49784 | 33109 ft | 486 kts | 102° |
| 2026-04-26 23:12 | 16.31814 | -41.42912 | 33109 ft | 486 kts | 102° |
| 2026-04-26 23:12 | 16.30316 | -41.36075 | 33110 ft | 486 kts | 102° |
| 2026-04-26 23:13 | 16.28804 | -41.29189 | 33111 ft | 487 kts | 103° |
| 2026-04-26 23:13 | 16.27303 | -41.22359 | 33109 ft | 487 kts | 103° |
| 2026-04-26 23:14 | 16.25785 | -41.15464 | 33108 ft | 487 kts | 103° |
| 2026-04-26 23:14 | 16.24276 | -41.08623 | 33109 ft | 487 kts | 103° |
| 2026-04-26 23:15 | 16.22758 | -41.01749 | 33106 ft | 487 kts | 103° |
| 2026-04-26 23:15 | 16.21888 | -40.97816 | 33107 ft | 486 kts | 103° |
| 2026-04-26 23:16 | 16.20378 | -40.91000 | 33109 ft | 486 kts | 103° |
| 2026-04-26 23:16 | 16.18856 | -40.84137 | 33109 ft | 486 kts | 103° |
| 2026-04-26 23:17 | 16.17332 | -40.77275 | 33112 ft | 486 kts | 103° |
| 2026-04-26 23:17 | 16.15818 | -40.70473 | 33112 ft | 485 kts | 103° |
| 2026-04-26 23:18 | 16.14291 | -40.63618 | 33108 ft | 485 kts | 103° |
| 2026-04-26 23:18 | 16.12761 | -40.56767 | 33113 ft | 485 kts | 103° |
| 2026-04-26 23:19 | 16.11239 | -40.49955 | 33110 ft | 485 kts | 103° |
| 2026-04-26 23:19 | 16.09702 | -40.43094 | 33109 ft | 485 kts | 103° |
| 2026-04-26 23:20 | 16.08176 | -40.36287 | 33112 ft | 485 kts | 103° |
| 2026-04-26 23:20 | 16.06639 | -40.29445 | 33108 ft | 485 kts | 103° |
| 2026-04-26 23:21 | 16.05109 | -40.22642 | 33112 ft | 485 kts | 103° |
| 2026-04-26 23:21 | 16.03564 | -40.15783 | 33117 ft | 486 kts | 103° |
| 2026-04-26 23:22 | 16.02021 | -40.08947 | 33113 ft | 486 kts | 103° |
| 2026-04-26 23:22 | 16.00480 | -40.02126 | 33142 ft | 488 kts | 103° |
| 2026-04-26 23:22 | 15.99694 | -39.98685 | 33333 ft | 490 kts | 104° |
| 2026-04-26 23:23 | 15.98820 | -39.95263 | 33663 ft | 488 kts | 106° |
| 2026-04-26 23:23 | 15.97887 | -39.91883 | 34025 ft | 485 kts | 107° |
| 2026-04-26 23:23 | 15.96932 | -39.88518 | 34367 ft | 482 kts | 107° |
| 2026-04-26 23:23 | 15.95991 | -39.85219 | 34669 ft | 480 kts | 107° |
| 2026-04-26 23:24 | 15.95045 | -39.81880 | 34902 ft | 479 kts | 107° |
| 2026-04-26 23:24 | 15.94113 | -39.78556 | 35084 ft | 479 kts | 107° |
| 2026-04-26 23:24 | 15.93184 | -39.75215 | 35104 ft | 482 kts | 107° |
| 2026-04-26 23:25 | 15.91333 | -39.68516 | 35114 ft | 481 kts | 107° |
| 2026-04-26 23:25 | 15.89496 | -39.61851 | 35117 ft | 478 kts | 107° |
| 2026-04-26 23:26 | 15.87670 | -39.55236 | 35114 ft | 477 kts | 107° |
| 2026-04-26 23:26 | 15.85835 | -39.48603 | 35116 ft | 476 kts | 107° |
| 2026-04-26 23:27 | 15.84011 | -39.42022 | 35118 ft | 476 kts | 107° |
| 2026-04-26 23:27 | 15.82172 | -39.35394 | 35118 ft | 477 kts | 107° |
| 2026-04-26 23:28 | 15.80333 | -39.28776 | 35116 ft | 478 kts | 107° |
| 2026-04-26 23:28 | 15.78479 | -39.22108 | 35113 ft | 479 kts | 107° |
| 2026-04-26 23:29 | 15.76632 | -39.15476 | 35115 ft | 480 kts | 107° |
| 2026-04-26 23:29 | 15.74773 | -39.08812 | 35114 ft | 481 kts | 107° |
| 2026-04-26 23:30 | 15.72906 | -39.02125 | 35118 ft | 481 kts | 107° |
| 2026-04-26 23:30 | 15.71038 | -38.95443 | 35117 ft | 482 kts | 107° |
| 2026-04-26 23:31 | 15.69178 | -38.88798 | 35120 ft | 482 kts | 107° |
| 2026-04-26 23:31 | 15.67303 | -38.82109 | 35116 ft | 482 kts | 107° |
| 2026-04-26 23:32 | 15.65429 | -38.75431 | 35114 ft | 481 kts | 107° |
| 2026-04-26 23:32 | 15.63566 | -38.68801 | 35112 ft | 480 kts | 107° |
| 2026-04-26 23:33 | 15.61693 | -38.62142 | 35115 ft | 479 kts | 107° |
| 2026-04-26 23:33 | 15.59823 | -38.55502 | 35117 ft | 479 kts | 107° |
| 2026-04-26 23:34 | 15.57962 | -38.48904 | 35114 ft | 479 kts | 107° |
| 2026-04-26 23:34 | 15.56088 | -38.42270 | 35115 ft | 478 kts | 107° |
| 2026-04-26 23:35 | 15.54223 | -38.35674 | 35120 ft | 478 kts | 107° |
| 2026-04-26 23:35 | 15.52348 | -38.29048 | 35117 ft | 479 kts | 107° |
| 2026-04-26 23:36 | 15.50463 | -38.22398 | 35116 ft | 479 kts | 107° |
| 2026-04-26 23:36 | 15.48594 | -38.15813 | 35115 ft | 479 kts | 107° |
| 2026-04-26 23:37 | 15.46707 | -38.09172 | 35119 ft | 479 kts | 107° |
| 2026-04-26 23:37 | 15.44816 | -38.02524 | 35117 ft | 480 kts | 107° |
| 2026-04-26 23:38 | 15.42933 | -37.95914 | 35116 ft | 480 kts | 107° |
| 2026-04-26 23:38 | 15.41037 | -37.89267 | 35114 ft | 480 kts | 107° |
| 2026-04-26 23:39 | 15.39139 | -37.82620 | 35119 ft | 480 kts | 107° |
| 2026-04-26 23:39 | 15.37247 | -37.76001 | 35112 ft | 481 kts | 107° |
| 2026-04-26 23:40 | 15.35352 | -37.69378 | 35123 ft | 481 kts | 107° |
| 2026-04-26 23:40 | 15.33442 | -37.62715 | 35110 ft | 481 kts | 107° |
| 2026-04-26 23:41 | 15.31544 | -37.56099 | 35114 ft | 480 kts | 107° |
| 2026-04-26 23:41 | 15.29638 | -37.49466 | 35116 ft | 480 kts | 107° |
| 2026-04-26 23:42 | 15.27728 | -37.42825 | 35115 ft | 480 kts | 107° |
| 2026-04-26 23:42 | 15.24879 | -37.32933 | 35115 ft | 479 kts | 107° |
| 2026-04-26 23:43 | 15.22967 | -37.26306 | 35117 ft | 479 kts | 107° |
| 2026-04-26 23:43 | 15.21055 | -37.19686 | 35113 ft | 479 kts | 107° |
| 2026-04-26 23:44 | 15.19140 | -37.13064 | 35118 ft | 479 kts | 107° |
| 2026-04-26 23:44 | 15.17235 | -37.06484 | 35116 ft | 479 kts | 107° |
| 2026-04-26 23:45 | 15.15961 | -37.02087 | 35116 ft | 479 kts | 107° |
| 2026-04-26 23:45 | 15.14226 | -36.96108 | 35113 ft | 479 kts | 107° |
| 2026-04-26 23:46 | 15.12305 | -36.89492 | 35117 ft | 479 kts | 107° |
| 2026-04-26 23:46 | 15.10381 | -36.82876 | 35117 ft | 479 kts | 107° |
| 2026-04-26 23:47 | 15.08464 | -36.76288 | 35114 ft | 479 kts | 107° |
| 2026-04-26 23:47 | 15.06535 | -36.69670 | 35114 ft | 480 kts | 107° |
| 2026-04-26 23:48 | 15.04614 | -36.63086 | 35117 ft | 480 kts | 107° |
| 2026-04-26 23:48 | 15.03003 | -36.57571 | 35119 ft | 480 kts | 107° |
| 2026-04-26 23:49 | 15.01066 | -36.50945 | 35116 ft | 480 kts | 107° |
| 2026-04-26 23:49 | 14.99141 | -36.44368 | 35116 ft | 480 kts | 107° |
| 2026-04-26 23:50 | 14.97200 | -36.37748 | 35117 ft | 480 kts | 107° |
| 2026-04-26 23:50 | 14.95260 | -36.31137 | 35114 ft | 480 kts | 107° |
| 2026-04-26 23:51 | 14.93329 | -36.24563 | 35124 ft | 479 kts | 107° |
| 2026-04-26 23:51 | 14.91384 | -36.17947 | 35118 ft | 479 kts | 107° |
| 2026-04-26 23:52 | 14.89449 | -36.11376 | 35122 ft | 479 kts | 107° |
| 2026-04-26 23:52 | 14.87515 | -36.04815 | 35120 ft | 479 kts | 107° |
| 2026-04-26 23:53 | 14.85569 | -35.98220 | 35118 ft | 479 kts | 107° |
| 2026-04-26 23:53 | 14.83620 | -35.91625 | 35124 ft | 479 kts | 107° |
| 2026-04-26 23:54 | 14.81663 | -35.85010 | 35121 ft | 480 kts | 107° |
| 2026-04-26 23:54 | 14.79720 | -35.78446 | 35126 ft | 480 kts | 107° |
| 2026-04-26 23:55 | 14.77760 | -35.71838 | 35116 ft | 481 kts | 107° |
| 2026-04-26 23:55 | 14.75799 | -35.65230 | 35118 ft | 481 kts | 107° |
| 2026-04-26 23:56 | 14.73845 | -35.58654 | 35118 ft | 481 kts | 107° |
| 2026-04-26 23:56 | 14.71872 | -35.52023 | 35118 ft | 481 kts | 107° |
| 2026-04-26 23:57 | 14.69910 | -35.45432 | 35118 ft | 481 kts | 107° |
| 2026-04-26 23:57 | 14.67932 | -35.38800 | 35117 ft | 481 kts | 107° |
| 2026-04-26 23:58 | 14.65967 | -35.32216 | 35116 ft | 481 kts | 107° |
| 2026-04-26 23:58 | 14.63986 | -35.25585 | 35108 ft | 481 kts | 107° |
| 2026-04-26 23:59 | 14.62019 | -35.19010 | 35117 ft | 481 kts | 107° |
| 2026-04-26 23:59 | 14.60037 | -35.12393 | 35115 ft | 481 kts | 107° |
| 2026-04-27 00:00 | 14.58058 | -35.05792 | 35109 ft | 481 kts | 107° |
| 2026-04-27 00:00 | 14.56087 | -34.99228 | 35115 ft | 481 kts | 107° |
| 2026-04-27 00:01 | 14.54106 | -34.92633 | 35115 ft | 481 kts | 107° |
| 2026-04-27 00:01 | 14.52121 | -34.86035 | 35110 ft | 481 kts | 107° |
| 2026-04-27 00:02 | 14.50135 | -34.79441 | 35113 ft | 481 kts | 107° |
| 2026-04-27 00:02 | 14.48160 | -34.72892 | 35108 ft | 481 kts | 107° |
| 2026-04-27 00:03 | 14.46173 | -34.66308 | 35111 ft | 481 kts | 107° |
| 2026-04-27 00:03 | 14.44181 | -34.59714 | 35111 ft | 481 kts | 107° |
| 2026-04-27 00:04 | 14.42182 | -34.53108 | 35108 ft | 481 kts | 107° |
| 2026-04-27 00:04 | 14.40201 | -34.46564 | 35109 ft | 481 kts | 107° |
| 2026-04-27 00:05 | 14.38203 | -34.39974 | 35108 ft | 481 kts | 108° |
| 2026-04-27 00:05 | 14.36201 | -34.33376 | 35110 ft | 481 kts | 108° |
| 2026-04-27 00:06 | 14.34198 | -34.26786 | 35108 ft | 481 kts | 108° |
| 2026-04-27 00:06 | 14.32204 | -34.20229 | 35110 ft | 481 kts | 108° |
| 2026-04-27 00:07 | 14.30197 | -34.13637 | 35107 ft | 482 kts | 108° |
| 2026-04-27 00:07 | 14.28187 | -34.07044 | 35107 ft | 482 kts | 108° |
| 2026-04-27 00:08 | 14.26172 | -34.00440 | 35099 ft | 482 kts | 108° |
| 2026-04-27 00:08 | 14.24156 | -33.93838 | 35100 ft | 482 kts | 108° |
| 2026-04-27 00:09 | 14.22150 | -33.87280 | 35104 ft | 482 kts | 108° |
| 2026-04-27 00:09 | 14.20133 | -33.80689 | 35101 ft | 481 kts | 108° |
| 2026-04-27 00:10 | 14.18127 | -33.74145 | 35102 ft | 481 kts | 108° |
| 2026-04-27 00:10 | 14.16109 | -33.67567 | 35100 ft | 481 kts | 108° |
| 2026-04-27 00:11 | 14.14090 | -33.60993 | 35103 ft | 480 kts | 108° |
| 2026-04-27 00:11 | 14.12082 | -33.54459 | 35105 ft | 480 kts | 108° |
| 2026-04-27 00:12 | 14.10063 | -33.47900 | 35099 ft | 480 kts | 108° |
| 2026-04-27 00:12 | 14.08037 | -33.41325 | 35102 ft | 480 kts | 108° |
| 2026-04-27 00:13 | 14.06012 | -33.34759 | 35102 ft | 480 kts | 108° |
| 2026-04-27 00:13 | 14.03988 | -33.28200 | 35105 ft | 480 kts | 108° |
| 2026-04-27 00:14 | 14.01969 | -33.21669 | 35102 ft | 481 kts | 108° |
| 2026-04-27 00:14 | 13.99934 | -33.15090 | 35102 ft | 481 kts | 108° |
| 2026-04-27 00:15 | 13.98590 | -33.10750 | 35098 ft | 481 kts | 108° |
| 2026-04-27 00:15 | 13.96860 | -33.05168 | 35099 ft | 481 kts | 108° |
| 2026-04-27 00:16 | 13.94833 | -32.98632 | 35099 ft | 481 kts | 108° |
| 2026-04-27 00:16 | 13.92792 | -32.92060 | 35096 ft | 481 kts | 108° |
| 2026-04-27 00:17 | 13.90749 | -32.85486 | 35100 ft | 481 kts | 108° |
| 2026-04-27 00:17 | 13.88706 | -32.78922 | 35094 ft | 481 kts | 108° |
| 2026-04-27 00:18 | 13.86674 | -32.72396 | 35098 ft | 481 kts | 108° |
| 2026-04-27 00:18 | 13.84626 | -32.65829 | 35097 ft | 481 kts | 108° |
| 2026-04-27 00:19 | 13.82583 | -32.59283 | 35091 ft | 480 kts | 108° |
| 2026-04-27 00:19 | 13.80547 | -32.52765 | 35094 ft | 480 kts | 108° |
| 2026-04-27 00:20 | 13.78498 | -32.46213 | 35092 ft | 480 kts | 108° |
| 2026-04-27 00:20 | 13.76461 | -32.39708 | 35096 ft | 479 kts | 108° |
| 2026-04-27 00:21 | 13.74412 | -32.33170 | 35090 ft | 480 kts | 108° |
| 2026-04-27 00:21 | 13.72359 | -32.26624 | 35095 ft | 479 kts | 108° |
| 2026-04-27 00:22 | 13.70321 | -32.20136 | 35090 ft | 480 kts | 108° |
| 2026-04-27 00:22 | 13.68264 | -32.13591 | 35089 ft | 480 kts | 108° |
| 2026-04-27 00:23 | 13.66204 | -32.07044 | 35098 ft | 480 kts | 108° |
| 2026-04-27 00:23 | 13.64158 | -32.00550 | 35093 ft | 480 kts | 108° |
| 2026-04-27 00:24 | 13.62093 | -31.94000 | 35095 ft | 480 kts | 108° |
| 2026-04-27 00:24 | 13.60042 | -31.87499 | 35082 ft | 480 kts | 108° |
| 2026-04-27 00:25 | 13.57974 | -31.80954 | 35088 ft | 480 kts | 108° |
| 2026-04-27 00:25 | 13.55904 | -31.74408 | 35087 ft | 480 kts | 108° |
| 2026-04-27 00:26 | 13.53846 | -31.67907 | 35084 ft | 480 kts | 108° |
| 2026-04-27 00:26 | 13.51772 | -31.61363 | 35087 ft | 480 kts | 108° |
| 2026-04-27 00:27 | 13.49702 | -31.54836 | 35083 ft | 481 kts | 108° |
| 2026-04-27 00:27 | 13.47638 | -31.48335 | 35088 ft | 480 kts | 108° |
| 2026-04-27 00:28 | 13.45562 | -31.41803 | 35083 ft | 481 kts | 108° |
| 2026-04-27 00:28 | 13.43486 | -31.35278 | 35084 ft | 480 kts | 108° |
| 2026-04-27 00:29 | 13.41405 | -31.28740 | 35082 ft | 480 kts | 108° |
| 2026-04-27 00:29 | 13.39343 | -31.22271 | 35081 ft | 479 kts | 108° |
| 2026-04-27 00:30 | 13.37261 | -31.15747 | 35084 ft | 478 kts | 108° |
| 2026-04-27 00:30 | 13.35201 | -31.09297 | 35078 ft | 478 kts | 108° |
| 2026-04-27 00:31 | 13.33127 | -31.02809 | 35088 ft | 478 kts | 108° |
| 2026-04-27 00:31 | 13.31048 | -30.96311 | 35082 ft | 478 kts | 108° |
| 2026-04-27 00:32 | 13.28983 | -30.89863 | 35087 ft | 478 kts | 108° |
| 2026-04-27 00:32 | 13.26900 | -30.83366 | 35083 ft | 478 kts | 108° |
| 2026-04-27 00:33 | 13.24813 | -30.76863 | 35079 ft | 478 kts | 108° |
| 2026-04-27 00:33 | 13.22739 | -30.70404 | 35087 ft | 479 kts | 108° |
| 2026-04-27 00:34 | 13.20652 | -30.63915 | 35076 ft | 479 kts | 108° |
| 2026-04-27 00:34 | 13.18563 | -30.57422 | 35086 ft | 478 kts | 108° |
| 2026-04-27 00:35 | 13.16489 | -30.50985 | 35078 ft | 477 kts | 108° |
| 2026-04-27 00:35 | 13.14403 | -30.44513 | 35083 ft | 477 kts | 108° |
| 2026-04-27 00:36 | 13.12670 | -30.39145 | 35074 ft | 477 kts | 108° |
| 2026-04-27 00:36 | 13.10583 | -30.32683 | 35078 ft | 476 kts | 108° |
| 2026-04-27 00:37 | 13.08492 | -30.26215 | 35083 ft | 477 kts | 108° |
| 2026-04-27 00:37 | 13.06416 | -30.19798 | 35079 ft | 477 kts | 108° |
| 2026-04-27 00:38 | 13.04321 | -30.13328 | 35081 ft | 477 kts | 108° |
| 2026-04-27 00:38 | 13.02223 | -30.06854 | 35069 ft | 478 kts | 108° |
| 2026-04-27 00:39 | 13.00119 | -30.00371 | 35084 ft | 478 kts | 108° |
| 2026-04-27 00:39 | 12.98019 | -29.93935 | 35071 ft | 478 kts | 108° |
| 2026-04-27 00:40 | 12.95896 | -29.87460 | 35074 ft | 478 kts | 109° |
| 2026-04-27 00:40 | 12.93774 | -29.80991 | 35080 ft | 477 kts | 109° |
| 2026-04-27 00:41 | 12.91673 | -29.74587 | 35075 ft | 476 kts | 109° |
| 2026-04-27 00:41 | 12.89552 | -29.68124 | 35079 ft | 476 kts | 109° |
| 2026-04-27 00:42 | 12.87448 | -29.61720 | 35074 ft | 477 kts | 109° |
| 2026-04-27 00:42 | 12.85321 | -29.55254 | 35082 ft | 477 kts | 109° |
| 2026-04-27 00:43 | 12.83199 | -29.48807 | 35078 ft | 477 kts | 109° |
| 2026-04-27 00:43 | 12.81081 | -29.42376 | 35078 ft | 477 kts | 109° |
| 2026-04-27 00:44 | 12.78961 | -29.35946 | 35074 ft | 478 kts | 109° |
| 2026-04-27 00:44 | 12.76825 | -29.29473 | 35071 ft | 478 kts | 109° |
| 2026-04-27 00:45 | 12.75409 | -29.25187 | 35069 ft | 478 kts | 109° |
| 2026-04-27 00:45 | 12.73560 | -29.19594 | 35075 ft | 478 kts | 109° |
| 2026-04-27 00:46 | 12.71422 | -29.13130 | 35068 ft | 478 kts | 109° |
| 2026-04-27 00:46 | 12.69298 | -29.06715 | 35066 ft | 477 kts | 109° |
| 2026-04-27 00:47 | 12.67160 | -29.00261 | 35073 ft | 477 kts | 109° |
| 2026-04-27 00:47 | 12.65026 | -28.93829 | 35070 ft | 477 kts | 109° |
| 2026-04-27 00:48 | 12.62898 | -28.87419 | 35067 ft | 477 kts | 109° |
| 2026-04-27 00:48 | 12.60759 | -28.80980 | 35059 ft | 477 kts | 109° |
| 2026-04-27 00:49 | 12.58629 | -28.74576 | 35069 ft | 477 kts | 109° |
| 2026-04-27 00:49 | 12.56487 | -28.68139 | 35064 ft | 477 kts | 109° |
| 2026-04-27 00:50 | 12.53273 | -28.58495 | 35059 ft | 477 kts | 109° |
| 2026-04-27 00:51 | 12.51130 | -28.52071 | 35069 ft | 476 kts | 109° |
| 2026-04-27 00:51 | 12.48998 | -28.45685 | 35059 ft | 477 kts | 109° |
| 2026-04-27 00:52 | 12.46850 | -28.39257 | 35064 ft | 476 kts | 109° |
| 2026-04-27 00:52 | 12.44716 | -28.32877 | 35063 ft | 476 kts | 109° |
| 2026-04-27 00:53 | 12.42567 | -28.26458 | 35064 ft | 476 kts | 109° |
| 2026-04-27 00:53 | 12.40419 | -28.20047 | 35069 ft | 476 kts | 109° |
| 2026-04-27 00:54 | 12.38267 | -28.13629 | 35061 ft | 476 kts | 109° |
| 2026-04-27 00:54 | 12.36119 | -28.07227 | 35067 ft | 476 kts | 109° |
| 2026-04-27 00:55 | 12.33978 | -28.00855 | 35056 ft | 476 kts | 109° |
| 2026-04-27 00:55 | 12.31823 | -27.94446 | 35063 ft | 476 kts | 109° |
| 2026-04-27 00:56 | 12.29667 | -27.88036 | 35055 ft | 476 kts | 109° |
| 2026-04-27 00:56 | 12.27520 | -27.81662 | 35061 ft | 476 kts | 109° |
| 2026-04-27 00:57 | 12.25358 | -27.75248 | 35065 ft | 476 kts | 109° |
| 2026-04-27 00:57 | 12.23196 | -27.68837 | 35056 ft | 476 kts | 109° |
| 2026-04-27 00:58 | 12.21046 | -27.62470 | 35060 ft | 476 kts | 109° |
| 2026-04-27 00:58 | 12.18893 | -27.56098 | 35051 ft | 476 kts | 109° |
| 2026-04-27 00:59 | 12.16726 | -27.49692 | 35062 ft | 476 kts | 109° |
| 2026-04-27 00:59 | 12.14558 | -27.43287 | 35048 ft | 476 kts | 109° |
| 2026-04-27 01:00 | 12.12406 | -27.36934 | 35080 ft | 476 kts | 109° |
| 2026-04-27 01:00 | 12.10233 | -27.30526 | 35057 ft | 476 kts | 109° |
| 2026-04-27 01:01 | 12.08056 | -27.24112 | 35056 ft | 476 kts | 109° |
| 2026-04-27 01:01 | 12.05892 | -27.17740 | 35057 ft | 477 kts | 109° |
| 2026-04-27 01:02 | 12.03713 | -27.11328 | 35052 ft | 477 kts | 109° |
| 2026-04-27 01:02 | 12.01550 | -27.04969 | 35059 ft | 476 kts | 109° |
| 2026-04-27 01:03 | 11.99370 | -26.98567 | 35052 ft | 477 kts | 110° |
| 2026-04-27 01:03 | 11.97197 | -26.92189 | 35059 ft | 476 kts | 110° |
| 2026-04-27 01:04 | 11.95015 | -26.85792 | 35042 ft | 476 kts | 110° |
| 2026-04-27 01:04 | 11.92830 | -26.79391 | 35049 ft | 476 kts | 110° |
| 2026-04-27 01:05 | 11.90660 | -26.73037 | 35049 ft | 476 kts | 110° |
| 2026-04-27 01:05 | 11.88479 | -26.66659 | 35048 ft | 476 kts | 110° |
| 2026-04-27 01:06 | 11.86290 | -26.60260 | 35051 ft | 476 kts | 110° |
| 2026-04-27 01:06 | 11.84115 | -26.53909 | 35047 ft | 476 kts | 110° |
| 2026-04-27 01:07 | 11.81923 | -26.47513 | 35044 ft | 476 kts | 110° |
| 2026-04-27 01:07 | 11.79748 | -26.41171 | 35044 ft | 476 kts | 110° |
| 2026-04-27 01:08 | 11.77550 | -26.34769 | 35270 ft | 478 kts | 110° |
| 2026-04-27 01:08 | 11.76451 | -26.31568 | 35597 ft | 476 kts | 110° |
| 2026-04-27 01:08 | 11.75355 | -26.28377 | 35908 ft | 474 kts | 110° |
| 2026-04-27 01:08 | 11.74265 | -26.25206 | 36132 ft | 474 kts | 110° |
| 2026-04-27 01:09 | 11.73181 | -26.22056 | 36280 ft | 476 kts | 110° |
| 2026-04-27 01:09 | 11.72079 | -26.18852 | 36466 ft | 476 kts | 110° |
| 2026-04-27 01:09 | 11.70983 | -26.15668 | 36698 ft | 475 kts | 110° |
| 2026-04-27 01:09 | 11.69887 | -26.12485 | 36946 ft | 474 kts | 110° |
| 2026-04-27 01:10 | 11.68802 | -26.09335 | 37046 ft | 477 kts | 110° |
| 2026-04-27 01:10 | 11.66595 | -26.02930 | 37046 ft | 477 kts | 110° |
| 2026-04-27 01:11 | 11.64395 | -25.96552 | 37045 ft | 474 kts | 110° |
| 2026-04-27 01:11 | 11.62222 | -25.90257 | 37043 ft | 471 kts | 110° |
| 2026-04-27 01:12 | 11.60046 | -25.83958 | 37044 ft | 469 kts | 110° |
| 2026-04-27 01:12 | 11.57873 | -25.77673 | 37046 ft | 469 kts | 110° |
| 2026-04-27 01:13 | 11.55707 | -25.71415 | 37046 ft | 470 kts | 110° |
| 2026-04-27 01:13 | 11.53520 | -25.65098 | 37052 ft | 472 kts | 110° |
| 2026-04-27 01:14 | 11.51339 | -25.58804 | 37045 ft | 474 kts | 110° |
| 2026-04-27 01:14 | 11.49137 | -25.52454 | 37045 ft | 475 kts | 110° |
| 2026-04-27 01:15 | 11.46921 | -25.46070 | 37042 ft | 477 kts | 110° |
| 2026-04-27 01:15 | 11.45686 | -25.42515 | 37043 ft | 477 kts | 110° |
| 2026-04-27 01:16 | 11.43469 | -25.36133 | 37044 ft | 478 kts | 110° |
| 2026-04-27 01:16 | 11.41246 | -25.29741 | 37039 ft | 478 kts | 110° |
| 2026-04-27 01:17 | 11.39032 | -25.23380 | 37039 ft | 478 kts | 110° |
| 2026-04-27 01:17 | 11.36805 | -25.16988 | 37040 ft | 477 kts | 110° |
| 2026-04-27 01:18 | 11.34581 | -25.10606 | 37040 ft | 476 kts | 110° |
| 2026-04-27 01:18 | 11.32375 | -25.04283 | 37040 ft | 475 kts | 110° |
| 2026-04-27 01:19 | 11.30155 | -24.97925 | 37036 ft | 475 kts | 110° |
| 2026-04-27 01:19 | 11.27956 | -24.91632 | 37036 ft | 474 kts | 110° |
| 2026-04-27 01:20 | 11.25740 | -24.85293 | 37039 ft | 473 kts | 110° |
| 2026-04-27 01:20 | 11.23528 | -24.78972 | 37037 ft | 473 kts | 110° |
| 2026-04-27 01:21 | 11.21336 | -24.72713 | 37034 ft | 472 kts | 110° |
| 2026-04-27 01:21 | 11.19125 | -24.66403 | 37032 ft | 472 kts | 110° |
| 2026-04-27 01:22 | 11.16914 | -24.60099 | 37035 ft | 472 kts | 110° |
| 2026-04-27 01:22 | 11.14710 | -24.53818 | 37033 ft | 472 kts | 110° |
| 2026-04-27 01:23 | 11.12866 | -24.48569 | 37031 ft | 473 kts | 110° |
| 2026-04-27 01:23 | 11.10288 | -24.41233 | 37030 ft | 473 kts | 110° |
| 2026-04-27 01:24 | 11.08438 | -24.35973 | 37028 ft | 474 kts | 110° |
| 2026-04-27 01:24 | 11.06211 | -24.29646 | 37033 ft | 474 kts | 110° |
| 2026-04-27 01:25 | 11.03979 | -24.23309 | 37032 ft | 475 kts | 110° |
| 2026-04-27 01:25 | 11.01758 | -24.17009 | 37030 ft | 476 kts | 110° |
| 2026-04-27 01:26 | 10.99518 | -24.10660 | 37024 ft | 475 kts | 110° |
| 2026-04-27 01:26 | 10.97287 | -24.04338 | 37016 ft | 474 kts | 110° |
| 2026-04-27 01:27 | 10.95056 | -23.98024 | 37019 ft | 473 kts | 111° |
| 2026-04-27 01:27 | 10.92840 | -23.91754 | 37023 ft | 472 kts | 111° |
| 2026-04-27 01:28 | 10.90629 | -23.85507 | 37028 ft | 471 kts | 111° |
| 2026-04-27 01:28 | 10.88405 | -23.79224 | 37023 ft | 470 kts | 111° |
| 2026-04-27 01:29 | 10.86186 | -23.72962 | 37024 ft | 470 kts | 111° |
| 2026-04-27 01:29 | 10.83975 | -23.66726 | 37026 ft | 470 kts | 111° |
| 2026-04-27 01:30 | 10.81748 | -23.60449 | 37024 ft | 471 kts | 111° |
| 2026-04-27 01:30 | 10.79530 | -23.54203 | 37024 ft | 472 kts | 111° |
| 2026-04-27 01:31 | 10.77294 | -23.47909 | 37019 ft | 473 kts | 111° |
| 2026-04-27 01:31 | 10.75068 | -23.41649 | 37017 ft | 473 kts | 111° |
| 2026-04-27 01:32 | 10.72821 | -23.35333 | 37025 ft | 473 kts | 111° |
| 2026-04-27 01:32 | 10.70595 | -23.29079 | 37012 ft | 473 kts | 111° |
| 2026-04-27 01:33 | 10.68352 | -23.22785 | 37011 ft | 472 kts | 111° |
| 2026-04-27 01:33 | 10.66125 | -23.16539 | 37012 ft | 471 kts | 111° |
| 2026-04-27 01:34 | 10.63892 | -23.10281 | 37015 ft | 470 kts | 111° |
| 2026-04-27 01:34 | 10.61659 | -23.04026 | 37012 ft | 469 kts | 111° |
| 2026-04-27 01:35 | 10.59431 | -22.97790 | 37014 ft | 469 kts | 111° |
| 2026-04-27 01:35 | 10.57213 | -22.91585 | 37014 ft | 468 kts | 111° |
| 2026-04-27 01:36 | 10.54982 | -22.85350 | 37015 ft | 468 kts | 111° |
| 2026-04-27 01:36 | 10.52220 | -22.79406 | 37021 ft | 467 kts | 120° |
| 2026-04-27 01:37 | 10.49040 | -22.73637 | 37009 ft | 467 kts | 121° |
| 2026-04-27 01:37 | 10.45861 | -22.67887 | 37011 ft | 468 kts | 120° |
| 2026-04-27 01:38 | 10.42708 | -22.62089 | 37014 ft | 468 kts | 120° |
| 2026-04-27 01:38 | 10.39578 | -22.56281 | 37006 ft | 468 kts | 119° |
| 2026-04-27 01:39 | 10.36470 | -22.50506 | 37007 ft | 468 kts | 119° |
| 2026-04-27 01:39 | 10.33340 | -22.44694 | 37004 ft | 467 kts | 119° |
| 2026-04-27 01:40 | 10.30233 | -22.38931 | 37006 ft | 467 kts | 119° |
| 2026-04-27 01:40 | 10.27112 | -22.33147 | 37005 ft | 467 kts | 119° |
| 2026-04-27 01:41 | 10.23978 | -22.27343 | 37004 ft | 467 kts | 119° |
| 2026-04-27 01:41 | 10.20867 | -22.21583 | 37003 ft | 467 kts | 119° |
| 2026-04-27 01:42 | 10.17742 | -22.15800 | 37001 ft | 467 kts | 120° |
| 2026-04-27 01:42 | 10.14635 | -22.10054 | 37000 ft | 467 kts | 120° |
| 2026-04-27 01:43 | 10.11502 | -22.04262 | 37003 ft | 467 kts | 120° |
| 2026-04-27 01:43 | 10.08371 | -21.98478 | 37000 ft | 467 kts | 120° |
| 2026-04-27 01:44 | 10.05264 | -21.92739 | 37000 ft | 467 kts | 120° |
| 2026-04-27 01:44 | 10.02132 | -21.86960 | 37000 ft | 467 kts | 120° |
| 2026-04-27 01:45 | 9.98994 | -21.81171 | 37005 ft | 467 kts | 120° |
| 2026-04-27 01:45 | 9.97155 | -21.77779 | 37002 ft | 467 kts | 120° |
| 2026-04-27 01:46 | 9.94013 | -21.71988 | 37000 ft | 467 kts | 120° |
| 2026-04-27 01:46 | 9.90879 | -21.66215 | 36997 ft | 467 kts | 120° |
| 2026-04-27 01:47 | 9.87738 | -21.60431 | 36997 ft | 467 kts | 120° |
| 2026-04-27 01:47 | 9.84615 | -21.54684 | 36996 ft | 467 kts | 119° |
| 2026-04-27 01:48 | 9.81477 | -21.48911 | 36995 ft | 466 kts | 119° |
| 2026-04-27 01:48 | 9.78365 | -21.43189 | 36993 ft | 465 kts | 120° |
| 2026-04-27 01:49 | 9.75236 | -21.37440 | 36996 ft | 464 kts | 120° |
| 2026-04-27 01:49 | 9.72110 | -21.31698 | 36993 ft | 464 kts | 120° |
| 2026-04-27 01:50 | 9.69012 | -21.26010 | 36992 ft | 463 kts | 119° |
| 2026-04-27 01:50 | 9.65897 | -21.20293 | 36992 ft | 463 kts | 120° |
| 2026-04-27 01:51 | 9.62776 | -21.14571 | 36994 ft | 463 kts | 120° |
| 2026-04-27 01:51 | 9.59659 | -21.08855 | 36988 ft | 463 kts | 120° |
| 2026-04-27 01:52 | 9.56558 | -21.03175 | 36991 ft | 464 kts | 120° |
| 2026-04-27 01:52 | 9.53429 | -20.97445 | 36994 ft | 464 kts | 120° |
| 2026-04-27 01:53 | 9.50297 | -20.91711 | 36988 ft | 464 kts | 120° |
| 2026-04-27 01:53 | 9.47175 | -20.85998 | 36984 ft | 464 kts | 120° |
| 2026-04-27 01:54 | 9.44047 | -20.80278 | 36980 ft | 463 kts | 120° |
| 2026-04-27 01:54 | 9.40933 | -20.74586 | 36982 ft | 463 kts | 120° |
| 2026-04-27 01:55 | 9.37807 | -20.68874 | 36986 ft | 463 kts | 120° |
| 2026-04-27 01:55 | 9.34678 | -20.63160 | 36983 ft | 463 kts | 120° |
| 2026-04-27 01:56 | 9.30002 | -20.54626 | 36981 ft | 463 kts | 120° |
| 2026-04-27 01:56 | 9.26874 | -20.48919 | 36982 ft | 463 kts | 120° |
| 2026-04-27 01:57 | 9.23737 | -20.43201 | 36975 ft | 464 kts | 120° |
| 2026-04-27 01:57 | 9.20626 | -20.37531 | 36987 ft | 463 kts | 120° |
| 2026-04-27 01:58 | 9.17485 | -20.31809 | 36976 ft | 464 kts | 120° |
| 2026-04-27 01:58 | 9.14366 | -20.26131 | 36978 ft | 463 kts | 120° |
| 2026-04-27 01:59 | 9.11230 | -20.20422 | 36977 ft | 463 kts | 120° |
| 2026-04-27 01:59 | 9.08089 | -20.14709 | 36975 ft | 463 kts | 120° |
| 2026-04-27 02:00 | 9.04973 | -20.09042 | 36967 ft | 463 kts | 120° |
| 2026-04-27 02:00 | 9.01843 | -20.03351 | 36977 ft | 463 kts | 120° |
| 2026-04-27 02:01 | 8.98703 | -19.97649 | 36974 ft | 463 kts | 120° |
| 2026-04-27 02:01 | 8.95573 | -19.91970 | 36970 ft | 463 kts | 120° |
| 2026-04-27 02:02 | 8.92445 | -19.86298 | 36970 ft | 464 kts | 120° |
| 2026-04-27 02:02 | 8.89312 | -19.80615 | 36976 ft | 463 kts | 120° |
| 2026-04-27 02:03 | 8.86165 | -19.74909 | 36961 ft | 464 kts | 120° |
| 2026-04-27 02:03 | 8.83019 | -19.69209 | 36964 ft | 463 kts | 120° |
| 2026-04-27 02:04 | 8.79897 | -19.63554 | 36967 ft | 463 kts | 120° |
| 2026-04-27 02:04 | 8.76751 | -19.57856 | 36968 ft | 463 kts | 120° |
| 2026-04-27 02:05 | 8.73621 | -19.52192 | 36964 ft | 462 kts | 120° |
| 2026-04-27 02:05 | 8.70474 | -19.46498 | 36962 ft | 462 kts | 120° |
| 2026-04-27 02:06 | 8.67336 | -19.40823 | 36965 ft | 462 kts | 120° |
| 2026-04-27 02:06 | 8.64206 | -19.35167 | 36965 ft | 463 kts | 120° |
| 2026-04-27 02:07 | 8.61055 | -19.29475 | 36962 ft | 463 kts | 120° |
| 2026-04-27 02:07 | 8.57926 | -19.23824 | 36961 ft | 463 kts | 120° |
| 2026-04-27 02:08 | 8.54772 | -19.18131 | 36956 ft | 463 kts | 120° |
| 2026-04-27 02:08 | 8.51643 | -19.12484 | 36957 ft | 463 kts | 120° |
| 2026-04-27 02:09 | 8.48492 | -19.06802 | 36957 ft | 463 kts | 120° |
| 2026-04-27 02:09 | 8.45330 | -19.01101 | 36956 ft | 463 kts | 120° |
| 2026-04-27 02:10 | 8.42192 | -18.95445 | 36953 ft | 464 kts | 120° |
| 2026-04-27 02:10 | 8.39034 | -18.89757 | 36954 ft | 463 kts | 120° |
| 2026-04-27 02:11 | 8.35896 | -18.84106 | 36954 ft | 463 kts | 120° |
| 2026-04-27 02:11 | 8.32736 | -18.78420 | 36949 ft | 463 kts | 120° |
| 2026-04-27 02:12 | 8.30109 | -18.73693 | 36956 ft | 463 kts | 120° |
| 2026-04-27 02:12 | 8.26949 | -18.68010 | 36949 ft | 463 kts | 120° |
| 2026-04-27 02:13 | 8.23793 | -18.62335 | 36953 ft | 463 kts | 120° |
| 2026-04-27 02:13 | 8.20652 | -18.56691 | 36950 ft | 462 kts | 120° |
| 2026-04-27 02:14 | 8.17498 | -18.51026 | 36951 ft | 462 kts | 120° |
| 2026-04-27 02:14 | 8.14372 | -18.45414 | 36950 ft | 461 kts | 120° |
| 2026-04-27 02:15 | 8.12265 | -18.41632 | 36947 ft | 461 kts | 120° |
| 2026-04-27 02:15 | 8.09390 | -18.36473 | 36949 ft | 460 kts | 120° |
| 2026-04-27 02:16 | 8.06248 | -18.30837 | 36949 ft | 460 kts | 120° |
| 2026-04-27 02:16 | 8.03119 | -18.25229 | 36950 ft | 460 kts | 120° |
| 2026-04-27 02:17 | 7.99970 | -18.19584 | 36950 ft | 461 kts | 120° |
| 2026-04-27 02:17 | 7.96820 | -18.13941 | 36948 ft | 461 kts | 120° |
| 2026-04-27 02:18 | 7.93688 | -18.08333 | 36947 ft | 461 kts | 120° |
| 2026-04-27 02:18 | 7.90533 | -18.02685 | 36948 ft | 461 kts | 120° |
| 2026-04-27 02:19 | 7.87396 | -17.97071 | 36944 ft | 461 kts | 121° |
| 2026-04-27 02:19 | 7.84232 | -17.91412 | 36944 ft | 461 kts | 120° |
| 2026-04-27 02:20 | 7.81093 | -17.85801 | 36944 ft | 461 kts | 120° |
| 2026-04-27 02:20 | 7.77935 | -17.80156 | 36941 ft | 461 kts | 121° |
| 2026-04-27 02:21 | 7.74779 | -17.74516 | 36941 ft | 461 kts | 120° |
| 2026-04-27 02:21 | 7.71623 | -17.68880 | 36939 ft | 461 kts | 120° |
| 2026-04-27 02:22 | 7.68488 | -17.63283 | 36937 ft | 461 kts | 120° |
| 2026-04-27 02:22 | 7.65328 | -17.57644 | 36941 ft | 461 kts | 120° |
| 2026-04-27 02:23 | 7.62165 | -17.52002 | 36932 ft | 461 kts | 121° |
| 2026-04-27 02:23 | 7.59021 | -17.46396 | 36939 ft | 461 kts | 120° |
| 2026-04-27 02:24 | 7.55857 | -17.40757 | 36936 ft | 461 kts | 120° |
| 2026-04-27 02:24 | 7.52713 | -17.35157 | 36935 ft | 460 kts | 121° |
| 2026-04-27 02:25 | 7.49563 | -17.29543 | 36934 ft | 459 kts | 120° |
| 2026-04-27 02:25 | 7.46422 | -17.23949 | 36933 ft | 458 kts | 121° |
| 2026-04-27 02:26 | 7.43279 | -17.18356 | 36936 ft | 458 kts | 121° |
| 2026-04-27 02:26 | 7.40142 | -17.12772 | 36930 ft | 457 kts | 121° |
| 2026-04-27 02:27 | 7.37018 | -17.07217 | 36931 ft | 457 kts | 120° |
| 2026-04-27 02:27 | 7.33881 | -17.01635 | 36934 ft | 457 kts | 120° |
| 2026-04-27 02:28 | 7.30738 | -16.96052 | 36939 ft | 457 kts | 121° |
| 2026-04-27 02:28 | 7.27610 | -16.90497 | 36935 ft | 458 kts | 121° |
| 2026-04-27 02:29 | 7.24467 | -16.84915 | 36935 ft | 458 kts | 121° |
| 2026-04-27 02:29 | 7.21322 | -16.79332 | 36931 ft | 458 kts | 120° |
| 2026-04-27 02:30 | 7.18171 | -16.73739 | 36938 ft | 457 kts | 120° |
| 2026-04-27 02:30 | 7.15041 | -16.68186 | 36931 ft | 457 kts | 120° |
| 2026-04-27 02:31 | 7.11899 | -16.62615 | 36931 ft | 457 kts | 121° |
| 2026-04-27 02:31 | 7.08774 | -16.57073 | 36929 ft | 456 kts | 120° |
| 2026-04-27 02:32 | 7.05633 | -16.51508 | 36929 ft | 456 kts | 120° |
| 2026-04-27 02:32 | 7.02513 | -16.45981 | 36931 ft | 456 kts | 120° |
| 2026-04-27 02:33 | 6.99371 | -16.40417 | 36933 ft | 456 kts | 121° |
| 2026-04-27 02:33 | 6.96259 | -16.34904 | 36931 ft | 455 kts | 120° |
| 2026-04-27 02:34 | 6.93120 | -16.29347 | 36932 ft | 456 kts | 120° |
| 2026-04-27 02:34 | 6.89981 | -16.23794 | 36936 ft | 456 kts | 121° |
| 2026-04-27 02:35 | 6.86860 | -16.18274 | 36932 ft | 456 kts | 120° |
| 2026-04-27 02:35 | 6.83717 | -16.12718 | 36927 ft | 456 kts | 121° |
| 2026-04-27 02:36 | 6.80573 | -16.07164 | 36930 ft | 456 kts | 120° |
| 2026-04-27 02:36 | 6.77445 | -16.01637 | 36931 ft | 456 kts | 121° |
| 2026-04-27 02:37 | 6.74301 | -15.96080 | 36926 ft | 456 kts | 121° |
| 2026-04-27 02:37 | 6.71151 | -15.90517 | 36934 ft | 456 kts | 120° |
| 2026-04-27 02:38 | 6.68018 | -15.84988 | 36931 ft | 456 kts | 121° |
| 2026-04-27 02:38 | 6.64869 | -15.79432 | 36932 ft | 456 kts | 121° |
| 2026-04-27 02:39 | 6.61736 | -15.73904 | 36932 ft | 456 kts | 121° |
| 2026-04-27 02:39 | 6.58583 | -15.68344 | 36930 ft | 456 kts | 120° |
| 2026-04-27 02:40 | 6.55455 | -15.62829 | 36915 ft | 455 kts | 120° |
| 2026-04-27 02:40 | 6.52327 | -15.57318 | 36929 ft | 453 kts | 120° |
| 2026-04-27 02:41 | 6.49205 | -15.51818 | 36918 ft | 452 kts | 120° |
| 2026-04-27 02:41 | 6.46091 | -15.46333 | 36924 ft | 450 kts | 120° |
| 2026-04-27 02:42 | 6.43004 | -15.40897 | 36929 ft | 449 kts | 120° |
| 2026-04-27 02:42 | 6.39900 | -15.35434 | 36930 ft | 448 kts | 120° |
| 2026-04-27 02:43 | 6.36803 | -15.29984 | 36931 ft | 448 kts | 120° |
| 2026-04-27 02:43 | 6.33718 | -15.24558 | 36923 ft | 449 kts | 120° |
| 2026-04-27 02:44 | 6.30626 | -15.19120 | 36919 ft | 449 kts | 120° |
| 2026-04-27 02:44 | 6.27515 | -15.13652 | 36925 ft | 450 kts | 120° |
| 2026-04-27 02:45 | 6.25433 | -15.09992 | 36924 ft | 451 kts | 120° |
| 2026-04-27 02:45 | 6.22667 | -15.05132 | 36928 ft | 451 kts | 120° |
| 2026-04-27 02:46 | 6.19541 | -14.99641 | 36923 ft | 452 kts | 120° |
| 2026-04-27 02:46 | 6.16437 | -14.94189 | 36927 ft | 452 kts | 120° |
| 2026-04-27 02:47 | 6.13312 | -14.88704 | 36923 ft | 452 kts | 120° |
| 2026-04-27 02:47 | 6.10186 | -14.83217 | 36914 ft | 452 kts | 120° |
| 2026-04-27 02:48 | 6.07062 | -14.77736 | 36917 ft | 451 kts | 120° |
| 2026-04-27 02:48 | 6.03960 | -14.72294 | 36919 ft | 451 kts | 120° |
| 2026-04-27 02:49 | 6.00836 | -14.66816 | 36915 ft | 451 kts | 120° |
| 2026-04-27 02:49 | 5.97734 | -14.61378 | 36922 ft | 450 kts | 120° |
| 2026-04-27 02:50 | 5.94619 | -14.55919 | 36911 ft | 450 kts | 120° |
| 2026-04-27 02:50 | 5.91496 | -14.50448 | 36924 ft | 450 kts | 120° |
| 2026-04-27 02:51 | 5.88396 | -14.45018 | 36919 ft | 450 kts | 120° |
| 2026-04-27 02:51 | 5.85271 | -14.39545 | 36921 ft | 450 kts | 120° |
| 2026-04-27 02:52 | 5.82151 | -14.34085 | 36906 ft | 451 kts | 120° |
| 2026-04-27 02:52 | 5.79027 | -14.28616 | 36920 ft | 451 kts | 120° |
| 2026-04-27 02:53 | 5.75919 | -14.23179 | 36920 ft | 451 kts | 120° |
| 2026-04-27 02:53 | 5.72792 | -14.17710 | 36911 ft | 451 kts | 120° |
| 2026-04-27 02:54 | 5.69684 | -14.12274 | 36910 ft | 451 kts | 120° |
| 2026-04-27 02:54 | 5.66554 | -14.06803 | 36916 ft | 451 kts | 120° |
| 2026-04-27 02:55 | 5.63435 | -14.01352 | 36922 ft | 451 kts | 120° |
| 2026-04-27 02:55 | 5.60304 | -13.95881 | 36909 ft | 451 kts | 120° |
| 2026-04-27 02:56 | 5.57167 | -13.90401 | 36913 ft | 451 kts | 120° |
| 2026-04-27 02:56 | 5.54049 | -13.84957 | 36922 ft | 451 kts | 120° |
| 2026-04-27 02:57 | 5.50930 | -13.79512 | 36910 ft | 452 kts | 120° |
| 2026-04-27 02:57 | 5.47799 | -13.74047 | 36912 ft | 452 kts | 120° |
| 2026-04-27 02:58 | 5.44662 | -13.68573 | 36916 ft | 452 kts | 120° |
| 2026-04-27 02:58 | 5.42050 | -13.64017 | 36920 ft | 452 kts | 120° |
| 2026-04-27 02:59 | 5.38391 | -13.57635 | 36908 ft | 453 kts | 120° |
| 2026-04-27 02:59 | 5.35777 | -13.53078 | 36911 ft | 453 kts | 120° |
| 2026-04-27 03:00 | 5.32629 | -13.47591 | 36921 ft | 453 kts | 120° |
| 2026-04-27 03:00 | 5.29475 | -13.42095 | 36909 ft | 453 kts | 120° |
| 2026-04-27 03:01 | 5.26350 | -13.36649 | 36911 ft | 453 kts | 120° |
| 2026-04-27 03:01 | 5.23201 | -13.31164 | 36916 ft | 453 kts | 120° |
| 2026-04-27 03:02 | 5.20050 | -13.25677 | 36911 ft | 453 kts | 120° |
| 2026-04-27 03:02 | 5.16917 | -13.20222 | 36911 ft | 453 kts | 120° |
| 2026-04-27 03:03 | 5.12212 | -13.12034 | 36913 ft | 452 kts | 120° |
| 2026-04-27 03:04 | 5.09064 | -13.06556 | 36912 ft | 452 kts | 120° |
| 2026-04-27 03:04 | 5.05912 | -13.01074 | 36908 ft | 452 kts | 120° |
| 2026-04-27 03:05 | 5.02790 | -12.95645 | 36913 ft | 452 kts | 120° |
| 2026-04-27 03:05 | 4.99649 | -12.90184 | 36911 ft | 452 kts | 120° |
| 2026-04-27 03:06 | 4.96496 | -12.84703 | 36908 ft | 451 kts | 120° |
| 2026-04-27 03:06 | 4.93377 | -12.79283 | 36915 ft | 451 kts | 120° |
| 2026-04-27 03:07 | 4.90236 | -12.73825 | 36916 ft | 451 kts | 120° |
| 2026-04-27 03:07 | 4.87087 | -12.68357 | 36910 ft | 452 kts | 120° |
| 2026-04-27 03:08 | 4.83942 | -12.62895 | 36911 ft | 452 kts | 121° |
| 2026-04-27 03:08 | 4.80811 | -12.57459 | 36908 ft | 452 kts | 121° |
| 2026-04-27 03:09 | 4.77660 | -12.51990 | 36909 ft | 452 kts | 121° |
| 2026-04-27 03:09 | 4.74528 | -12.46553 | 36911 ft | 453 kts | 121° |
| 2026-04-27 03:10 | 4.71373 | -12.41080 | 36915 ft | 453 kts | 121° |
| 2026-04-27 03:10 | 4.68214 | -12.35600 | 36912 ft | 453 kts | 121° |
| 2026-04-27 03:11 | 4.65065 | -12.30138 | 36911 ft | 454 kts | 121° |
| 2026-04-27 03:11 | 4.61897 | -12.24644 | 36914 ft | 454 kts | 121° |
| 2026-04-27 03:12 | 4.58749 | -12.19186 | 36918 ft | 454 kts | 120° |
| 2026-04-27 03:12 | 4.56368 | -12.13311 | 36912 ft | 456 kts | 104° |
| 2026-04-27 03:13 | 4.55029 | -12.07111 | 37156 ft | 458 kts | 102° |
| 2026-04-27 03:13 | 4.54386 | -12.03986 | 37501 ft | 456 kts | 102° |
| 2026-04-27 03:13 | 4.53741 | -12.00883 | 37852 ft | 453 kts | 102° |
| 2026-04-27 03:13 | 4.53087 | -11.97787 | 38108 ft | 452 kts | 103° |
| 2026-04-27 03:14 | 4.52423 | -11.94693 | 38305 ft | 453 kts | 103° |
| 2026-04-27 03:14 | 4.51761 | -11.91642 | 38502 ft | 453 kts | 103° |
| 2026-04-27 03:14 | 4.51086 | -11.88553 | 38719 ft | 452 kts | 103° |
| 2026-04-27 03:14 | 4.50411 | -11.85470 | 38925 ft | 451 kts | 103° |
| 2026-04-27 03:15 | 4.49730 | -11.82370 | 38892 ft | 454 kts | 103° |
| 2026-04-27 03:15 | 4.48983 | -11.78966 | 38908 ft | 452 kts | 103° |
| 2026-04-27 03:16 | 4.47637 | -11.72830 | 38909 ft | 448 kts | 103° |
| 2026-04-27 03:16 | 4.46305 | -11.66755 | 38909 ft | 446 kts | 103° |
| 2026-04-27 03:17 | 4.44971 | -11.60678 | 38911 ft | 445 kts | 103° |
| 2026-04-27 03:17 | 4.43649 | -11.54658 | 38916 ft | 445 kts | 103° |
| 2026-04-27 03:18 | 4.42314 | -11.48577 | 38919 ft | 447 kts | 103° |
| 2026-04-27 03:18 | 4.40968 | -11.42454 | 38919 ft | 449 kts | 103° |
| 2026-04-27 03:19 | 4.39626 | -11.36348 | 38920 ft | 452 kts | 103° |
| 2026-04-27 03:19 | 4.38269 | -11.30174 | 38918 ft | 454 kts | 103° |
| 2026-04-27 03:20 | 4.36913 | -11.24010 | 38907 ft | 456 kts | 103° |
| 2026-04-27 03:20 | 4.35544 | -11.17790 | 38908 ft | 457 kts | 103° |
| 2026-04-27 03:21 | 4.34174 | -11.11565 | 38918 ft | 457 kts | 103° |
| 2026-04-27 03:21 | 4.32810 | -11.05374 | 38907 ft | 457 kts | 103° |
| 2026-04-27 03:22 | 4.31440 | -10.99157 | 38908 ft | 456 kts | 103° |
| 2026-04-27 03:22 | 4.30078 | -10.92976 | 38915 ft | 454 kts | 103° |
| 2026-04-27 03:23 | 4.28713 | -10.86786 | 38909 ft | 453 kts | 103° |
| 2026-04-27 03:23 | 4.27364 | -10.80662 | 38906 ft | 451 kts | 103° |
| 2026-04-27 03:24 | 4.26011 | -10.74530 | 38910 ft | 449 kts | 103° |
| 2026-04-27 03:24 | 4.24668 | -10.68453 | 38909 ft | 448 kts | 103° |
| 2026-04-27 03:25 | 4.23323 | -10.62364 | 38909 ft | 447 kts | 103° |
| 2026-04-27 03:25 | 4.21978 | -10.56276 | 38911 ft | 447 kts | 103° |
| 2026-04-27 03:26 | 4.20630 | -10.50178 | 38910 ft | 447 kts | 103° |
| 2026-04-27 03:26 | 4.19288 | -10.44105 | 38910 ft | 447 kts | 103° |
| 2026-04-27 03:27 | 4.17947 | -10.38044 | 38910 ft | 448 kts | 103° |
| 2026-04-27 03:27 | 4.16594 | -10.31931 | 38911 ft | 449 kts | 103° |
| 2026-04-27 03:28 | 4.15244 | -10.25837 | 38910 ft | 449 kts | 103° |
| 2026-04-27 03:28 | 4.13887 | -10.19712 | 38911 ft | 450 kts | 102° |
| 2026-04-27 03:29 | 4.12530 | -10.13588 | 38914 ft | 450 kts | 103° |
| 2026-04-27 03:29 | 4.11172 | -10.07459 | 38906 ft | 450 kts | 102° |
| 2026-04-27 03:30 | 4.09822 | -10.01366 | 38912 ft | 450 kts | 102° |
| 2026-04-27 03:30 | 4.08464 | -9.95244 | 38912 ft | 449 kts | 103° |
| 2026-04-27 03:31 | 4.07116 | -9.89167 | 38908 ft | 449 kts | 102° |
| 2026-04-27 03:31 | 4.05760 | -9.83058 | 38913 ft | 448 kts | 102° |
| 2026-04-27 03:32 | 4.04407 | -9.76965 | 38909 ft | 447 kts | 102° |
| 2026-04-27 03:32 | 4.03062 | -9.70912 | 38908 ft | 447 kts | 102° |
| 2026-04-27 03:33 | 4.01713 | -9.64838 | 38912 ft | 446 kts | 102° |
| 2026-04-27 03:33 | 4.00361 | -9.58758 | 38907 ft | 446 kts | 102° |
| 2026-04-27 03:34 | 3.99020 | -9.52726 | 38911 ft | 446 kts | 102° |
| 2026-04-27 03:34 | 3.97669 | -9.46651 | 38912 ft | 446 kts | 102° |
| 2026-04-27 03:35 | 3.96317 | -9.40578 | 38904 ft | 446 kts | 102° |
| 2026-04-27 03:35 | 3.94971 | -9.34532 | 38911 ft | 448 kts | 102° |
| 2026-04-27 03:36 | 3.93612 | -9.28428 | 38917 ft | 449 kts | 102° |
| 2026-04-27 03:36 | 3.92246 | -9.22294 | 38912 ft | 451 kts | 102° |
| 2026-04-27 03:37 | 3.90883 | -9.16178 | 38905 ft | 452 kts | 103° |
| 2026-04-27 03:37 | 3.89510 | -9.10023 | 38908 ft | 453 kts | 103° |
| 2026-04-27 03:38 | 3.88134 | -9.03852 | 38907 ft | 453 kts | 103° |
| 2026-04-27 03:38 | 3.86766 | -8.97719 | 38904 ft | 453 kts | 103° |
| 2026-04-27 03:39 | 3.85389 | -8.91548 | 38903 ft | 452 kts | 103° |
| 2026-04-27 03:39 | 3.84024 | -8.85434 | 38905 ft | 451 kts | 103° |
| 2026-04-27 03:40 | 3.82655 | -8.79302 | 38909 ft | 450 kts | 103° |
| 2026-04-27 03:40 | 3.81296 | -8.73219 | 38904 ft | 449 kts | 103° |
| 2026-04-27 03:41 | 3.79931 | -8.67113 | 38914 ft | 448 kts | 103° |
| 2026-04-27 03:41 | 3.78575 | -8.61046 | 38904 ft | 447 kts | 103° |
| 2026-04-27 03:42 | 3.77214 | -8.54962 | 38901 ft | 446 kts | 103° |
| 2026-04-27 03:42 | 3.75861 | -8.48914 | 38898 ft | 445 kts | 103° |
| 2026-04-27 03:43 | 3.74508 | -8.42867 | 38904 ft | 445 kts | 103° |
| 2026-04-27 03:43 | 3.73159 | -8.36840 | 38904 ft | 446 kts | 103° |
| 2026-04-27 03:44 | 3.71801 | -8.30774 | 38913 ft | 446 kts | 103° |
| 2026-04-27 03:44 | 3.70669 | -8.25721 | 38905 ft | 447 kts | 103° |
| 2026-04-27 03:45 | 3.69086 | -8.18658 | 38904 ft | 447 kts | 103° |
| 2026-04-27 03:45 | 3.68508 | -8.16081 | 38904 ft | 447 kts | 103° |
| 2026-04-27 03:46 | 3.67145 | -8.10001 | 38905 ft | 447 kts | 103° |
| 2026-04-27 03:46 | 3.65777 | -8.03902 | 38904 ft | 447 kts | 103° |
| 2026-04-27 03:47 | 3.64420 | -7.97852 | 38903 ft | 447 kts | 103° |
| 2026-04-27 03:47 | 3.63054 | -7.91764 | 38904 ft | 447 kts | 103° |
| 2026-04-27 03:48 | 3.61688 | -7.85681 | 38905 ft | 447 kts | 103° |
| 2026-04-27 03:48 | 3.60330 | -7.79631 | 38903 ft | 447 kts | 103° |
| 2026-04-27 03:49 | 3.58971 | -7.73581 | 38905 ft | 447 kts | 103° |
| 2026-04-27 03:49 | 3.57604 | -7.67497 | 38904 ft | 447 kts | 103° |
| 2026-04-27 03:50 | 3.56246 | -7.61453 | 38905 ft | 447 kts | 103° |
| 2026-04-27 03:50 | 3.54878 | -7.55369 | 38907 ft | 446 kts | 103° |
| 2026-04-27 03:51 | 3.53514 | -7.49303 | 38903 ft | 446 kts | 103° |
| 2026-04-27 03:51 | 3.52159 | -7.43279 | 38904 ft | 446 kts | 103° |
| 2026-04-27 03:52 | 3.51397 | -7.37116 | 38899 ft | 446 kts | 89° |
| 2026-04-27 03:52 | 3.51666 | -7.30932 | 38903 ft | 446 kts | 88° |
| 2026-04-27 03:53 | 3.51989 | -7.24759 | 38904 ft | 446 kts | 88° |
| 2026-04-27 03:53 | 3.52281 | -7.18554 | 38916 ft | 445 kts | 88° |
| 2026-04-27 03:54 | 3.52545 | -7.12374 | 38898 ft | 445 kts | 88° |
| 2026-04-27 03:54 | 3.52800 | -7.06210 | 38900 ft | 444 kts | 88° |
| 2026-04-27 03:55 | 3.53054 | -7.00030 | 38900 ft | 443 kts | 88° |
| 2026-04-27 03:55 | 3.53308 | -6.93850 | 38903 ft | 443 kts | 88° |
| 2026-04-27 03:56 | 3.53561 | -6.87721 | 38904 ft | 442 kts | 88° |
| 2026-04-27 03:56 | 3.53814 | -6.81566 | 38910 ft | 442 kts | 88° |
| 2026-04-27 03:57 | 3.54067 | -6.75413 | 38903 ft | 442 kts | 88° |
| 2026-04-27 03:57 | 3.54319 | -6.69267 | 38905 ft | 441 kts | 88° |
| 2026-04-27 03:58 | 3.54570 | -6.63116 | 38904 ft | 441 kts | 88° |
| 2026-04-27 03:58 | 3.54822 | -6.56970 | 38904 ft | 441 kts | 88° |
| 2026-04-27 03:59 | 3.55071 | -6.50867 | 38904 ft | 441 kts | 88° |
| 2026-04-27 03:59 | 3.55321 | -6.44719 | 38902 ft | 442 kts | 88° |
| 2026-04-27 04:00 | 3.55571 | -6.38567 | 38921 ft | 442 kts | 87° |
| 2026-04-27 04:00 | 3.55820 | -6.32447 | 38908 ft | 443 kts | 88° |
| 2026-04-27 04:01 | 3.56070 | -6.26279 | 38908 ft | 443 kts | 88° |
| 2026-04-27 04:01 | 3.56319 | -6.20129 | 38906 ft | 444 kts | 88° |
| 2026-04-27 04:02 | 3.56569 | -6.13945 | 38908 ft | 444 kts | 88° |
| 2026-04-27 04:02 | 3.56819 | -6.07751 | 38906 ft | 445 kts | 88° |
| 2026-04-27 04:03 | 3.57067 | -6.01588 | 38913 ft | 445 kts | 88° |
| 2026-04-27 04:03 | 3.57316 | -5.95381 | 38911 ft | 446 kts | 88° |
| 2026-04-27 04:04 | 3.57565 | -5.89195 | 38903 ft | 446 kts | 88° |
| 2026-04-27 04:04 | 3.57814 | -5.82973 | 38902 ft | 446 kts | 88° |
| 2026-04-27 04:05 | 3.58062 | -5.76758 | 38907 ft | 446 kts | 88° |
| 2026-04-27 04:05 | 3.58309 | -5.70581 | 38911 ft | 446 kts | 88° |
| 2026-04-27 04:06 | 3.58558 | -5.64344 | 38908 ft | 446 kts | 88° |
| 2026-04-27 04:06 | 3.58804 | -5.58162 | 38906 ft | 446 kts | 88° |
| 2026-04-27 04:07 | 3.59172 | -5.48893 | 38906 ft | 445 kts | 88° |
| 2026-04-27 04:07 | 3.59418 | -5.42682 | 38904 ft | 445 kts | 88° |
| 2026-04-27 04:08 | 3.59663 | -5.36491 | 38905 ft | 445 kts | 88° |
| 2026-04-27 04:08 | 3.59906 | -5.30339 | 38899 ft | 445 kts | 88° |
| 2026-04-27 04:09 | 3.60151 | -5.24122 | 38914 ft | 446 kts | 88° |
| 2026-04-27 04:09 | 3.60394 | -5.17943 | 38912 ft | 447 kts | 88° |
| 2026-04-27 04:10 | 3.60639 | -5.11711 | 38908 ft | 449 kts | 88° |
| 2026-04-27 04:10 | 3.60885 | -5.05451 | 38909 ft | 450 kts | 88° |
| 2026-04-27 04:11 | 3.61129 | -4.99207 | 38908 ft | 451 kts | 88° |
| 2026-04-27 04:11 | 3.61375 | -4.92911 | 38905 ft | 452 kts | 88° |
| 2026-04-27 04:12 | 3.61619 | -4.86647 | 38902 ft | 452 kts | 88° |
| 2026-04-27 04:12 | 3.61866 | -4.80329 | 38900 ft | 453 kts | 88° |
| 2026-04-27 04:13 | 3.62109 | -4.74061 | 38901 ft | 453 kts | 88° |
| 2026-04-27 04:13 | 3.62354 | -4.67757 | 38899 ft | 452 kts | 88° |
| 2026-04-27 04:14 | 3.62597 | -4.61486 | 38899 ft | 452 kts | 88° |
| 2026-04-27 04:14 | 3.62840 | -4.55190 | 38911 ft | 451 kts | 88° |
| 2026-04-27 04:15 | 3.63001 | -4.51032 | 38902 ft | 450 kts | 88° |
| 2026-04-27 04:15 | 3.63227 | -4.45155 | 38894 ft | 448 kts | 88° |
| 2026-04-27 04:16 | 3.63465 | -4.38966 | 38894 ft | 446 kts | 88° |
| 2026-04-27 04:16 | 3.63704 | -4.32754 | 38898 ft | 445 kts | 88° |
| 2026-04-27 04:17 | 3.63941 | -4.26565 | 38899 ft | 443 kts | 88° |
| 2026-04-27 04:17 | 3.64176 | -4.20432 | 38900 ft | 443 kts | 88° |
| 2026-04-27 04:18 | 3.64412 | -4.14252 | 38898 ft | 443 kts | 88° |
| 2026-04-27 04:18 | 3.64647 | -4.08101 | 38899 ft | 443 kts | 88° |
| 2026-04-27 04:19 | 3.64882 | -4.01913 | 38899 ft | 444 kts | 88° |
| 2026-04-27 04:19 | 3.65116 | -3.95756 | 38901 ft | 445 kts | 88° |
| 2026-04-27 04:20 | 3.65351 | -3.89551 | 38902 ft | 446 kts | 88° |
| 2026-04-27 04:20 | 3.65587 | -3.83333 | 38899 ft | 447 kts | 88° |
| 2026-04-27 04:21 | 3.65821 | -3.77128 | 38898 ft | 448 kts | 88° |
| 2026-04-27 04:21 | 3.66056 | -3.70897 | 38898 ft | 448 kts | 88° |
| 2026-04-27 04:22 | 3.66292 | -3.64652 | 38898 ft | 448 kts | 88° |
| 2026-04-27 04:22 | 3.66525 | -3.58435 | 38900 ft | 448 kts | 88° |
| 2026-04-27 04:23 | 3.66759 | -3.52199 | 38899 ft | 447 kts | 88° |
| 2026-04-27 04:23 | 3.66991 | -3.46006 | 38897 ft | 447 kts | 88° |
| 2026-04-27 04:24 | 3.67224 | -3.39780 | 38899 ft | 447 kts | 88° |
| 2026-04-27 04:24 | 3.67456 | -3.33551 | 38901 ft | 447 kts | 87° |
| 2026-04-27 04:25 | 3.67687 | -3.27355 | 38901 ft | 447 kts | 87° |
| 2026-04-27 04:25 | 3.67918 | -3.21140 | 38902 ft | 447 kts | 87° |
| 2026-04-27 04:26 | 3.68147 | -3.14943 | 38901 ft | 447 kts | 87° |
| 2026-04-27 04:26 | 3.68379 | -3.08711 | 38900 ft | 447 kts | 87° |
| 2026-04-27 04:27 | 3.68609 | -3.02467 | 38900 ft | 448 kts | 87° |
| 2026-04-27 04:27 | 3.69614 | -2.96375 | 38912 ft | 446 kts | 74° |
| 2026-04-27 04:28 | 3.71378 | -2.90439 | 38899 ft | 447 kts | 72° |
| 2026-04-27 04:28 | 3.73178 | -2.84460 | 38902 ft | 447 kts | 73° |
| 2026-04-27 04:29 | 3.74935 | -2.78483 | 38905 ft | 447 kts | 73° |
| 2026-04-27 04:29 | 3.76663 | -2.72520 | 38905 ft | 448 kts | 73° |
| 2026-04-27 04:30 | 3.78399 | -2.66516 | 38905 ft | 448 kts | 73° |
| 2026-04-27 04:30 | 3.80134 | -2.60514 | 38910 ft | 448 kts | 73° |
| 2026-04-27 04:31 | 3.81857 | -2.54550 | 38903 ft | 448 kts | 73° |
| 2026-04-27 04:31 | 3.83589 | -2.48562 | 38905 ft | 448 kts | 73° |
| 2026-04-27 04:32 | 3.85324 | -2.42557 | 38904 ft | 447 kts | 73° |
| 2026-04-27 04:32 | 3.87042 | -2.36611 | 38904 ft | 447 kts | 73° |
| 2026-04-27 04:33 | 3.88775 | -2.30612 | 38904 ft | 447 kts | 73° |
| 2026-04-27 04:33 | 3.90495 | -2.24653 | 38909 ft | 446 kts | 73° |
| 2026-04-27 04:34 | 3.92221 | -2.18675 | 38906 ft | 446 kts | 73° |
| 2026-04-27 04:34 | 3.93654 | -2.13709 | 38907 ft | 446 kts | 73° |
| 2026-04-27 04:35 | 3.95369 | -2.07765 | 38908 ft | 445 kts | 73° |
| 2026-04-27 04:35 | 3.97091 | -2.01794 | 38909 ft | 445 kts | 73° |
| 2026-04-27 04:36 | 3.98812 | -1.95829 | 38909 ft | 445 kts | 73° |
| 2026-04-27 04:36 | 4.01483 | -1.90300 | 38911 ft | 444 kts | 55° |
| 2026-04-27 04:37 | 4.05544 | -1.85676 | 38916 ft | 444 kts | 46° |
| 2026-04-27 04:37 | 4.09864 | -1.81241 | 38912 ft | 444 kts | 46° |
| 2026-04-27 04:38 | 4.14156 | -1.76767 | 38904 ft | 444 kts | 46° |
| 2026-04-27 04:38 | 4.18386 | -1.72303 | 38906 ft | 444 kts | 47° |
| 2026-04-27 04:39 | 4.22649 | -1.67796 | 38904 ft | 445 kts | 46° |
| 2026-04-27 04:39 | 4.26891 | -1.63313 | 38907 ft | 445 kts | 47° |
| 2026-04-27 04:40 | 4.31156 | -1.58789 | 38906 ft | 446 kts | 47° |
| 2026-04-27 04:40 | 4.35419 | -1.54262 | 38794 ft | 449 kts | 47° |
| 2026-04-27 04:41 | 4.37567 | -1.51983 | 38392 ft | 449 kts | 47° |
| 2026-04-27 04:41 | 4.39711 | -1.49707 | 37944 ft | 444 kts | 47° |
| 2026-04-27 04:41 | 4.41791 | -1.47499 | 37518 ft | 438 kts | 47° |
| 2026-04-27 04:41 | 4.43859 | -1.45285 | 37123 ft | 432 kts | 47° |
| 2026-04-27 04:42 | 4.45895 | -1.43087 | 36683 ft | 428 kts | 47° |
| 2026-04-27 04:42 | 4.47914 | -1.40902 | 36283 ft | 424 kts | 47° |
| 2026-04-27 04:42 | 4.49912 | -1.38737 | 35874 ft | 420 kts | 47° |
| 2026-04-27 04:42 | 4.51869 | -1.36618 | 35463 ft | 417 kts | 46° |
| 2026-04-27 04:43 | 4.53837 | -1.34489 | 35043 ft | 414 kts | 46° |
| 2026-04-27 04:43 | 4.55793 | -1.32373 | 34629 ft | 412 kts | 46° |
| 2026-04-27 04:43 | 4.57741 | -1.30267 | 34202 ft | 410 kts | 46° |
| 2026-04-27 04:43 | 4.59681 | -1.28171 | 33750 ft | 409 kts | 46° |
| 2026-04-27 04:44 | 4.61587 | -1.26111 | 33311 ft | 407 kts | 46° |
| 2026-04-27 04:44 | 4.63511 | -1.24030 | 32890 ft | 404 kts | 46° |
| 2026-04-27 04:44 | 4.65417 | -1.21970 | 32487 ft | 402 kts | 46° |
| 2026-04-27 04:44 | 4.67316 | -1.19917 | 32081 ft | 400 kts | 47° |
| 2026-04-27 04:45 | 4.69185 | -1.17896 | 31687 ft | 398 kts | 47° |
| 2026-04-27 04:45 | 4.69817 | -1.17212 | 31554 ft | 397 kts | 47° |
| 2026-04-27 04:45 | 4.71327 | -1.15580 | 31239 ft | 396 kts | 47° |
| 2026-04-27 04:45 | 4.73201 | -1.13553 | 30836 ft | 394 kts | 47° |
| 2026-04-27 04:46 | 4.75064 | -1.11537 | 30449 ft | 393 kts | 47° |
| 2026-04-27 04:46 | 4.76926 | -1.09524 | 30045 ft | 392 kts | 47° |
| 2026-04-27 04:46 | 4.78774 | -1.07525 | 29612 ft | 390 kts | 47° |
| 2026-04-27 04:46 | 4.80590 | -1.05559 | 29186 ft | 387 kts | 47° |
| 2026-04-27 04:47 | 4.82421 | -1.03578 | 28756 ft | 384 kts | 47° |
| 2026-04-27 04:47 | 4.84236 | -1.01613 | 28330 ft | 381 kts | 47° |
| 2026-04-27 04:47 | 4.86034 | -0.99668 | 27915 ft | 378 kts | 47° |
| 2026-04-27 04:47 | 4.87797 | -0.97759 | 27506 ft | 375 kts | 47° |
| 2026-04-27 04:48 | 4.89576 | -0.95833 | 27098 ft | 373 kts | 47° |
| 2026-04-27 04:48 | 4.91335 | -0.93928 | 26692 ft | 370 kts | 47° |
| 2026-04-27 04:48 | 4.93082 | -0.92037 | 26287 ft | 368 kts | 47° |
| 2026-04-27 04:48 | 4.94822 | -0.90154 | 25882 ft | 366 kts | 46° |
| 2026-04-27 04:49 | 4.96524 | -0.88310 | 25448 ft | 365 kts | 46° |
| 2026-04-27 04:49 | 4.98257 | -0.86429 | 24978 ft | 365 kts | 46° |
| 2026-04-27 04:49 | 4.99974 | -0.84563 | 24545 ft | 364 kts | 46° |
| 2026-04-27 04:49 | 5.01687 | -0.82700 | 24127 ft | 362 kts | 46° |
| 2026-04-27 04:50 | 5.03373 | -0.80867 | 23715 ft | 361 kts | 46° |
| 2026-04-27 04:50 | 5.05074 | -0.79018 | 23255 ft | 359 kts | 46° |
| 2026-04-27 04:50 | 5.06765 | -0.77179 | 22802 ft | 356 kts | 46° |
| 2026-04-27 04:50 | 5.08442 | -0.75355 | 22367 ft | 353 kts | 46° |
| 2026-04-27 04:51 | 5.10106 | -0.73546 | 21948 ft | 350 kts | 46° |
| 2026-04-27 04:51 | 5.11750 | -0.71757 | 21537 ft | 347 kts | 46° |
| 2026-04-27 04:51 | 5.13383 | -0.69981 | 21131 ft | 344 kts | 46° |
| 2026-04-27 04:51 | 5.14999 | -0.68223 | 20730 ft | 341 kts | 46° |
| 2026-04-27 04:52 | 5.16583 | -0.66500 | 20338 ft | 339 kts | 46° |
| 2026-04-27 04:52 | 5.18177 | -0.64765 | 19940 ft | 336 kts | 46° |
| 2026-04-27 04:52 | 5.19761 | -0.63043 | 19544 ft | 334 kts | 46° |
| 2026-04-27 04:52 | 5.21333 | -0.61332 | 19152 ft | 332 kts | 46° |
| 2026-04-27 04:53 | 5.22897 | -0.59630 | 18748 ft | 331 kts | 46° |
| 2026-04-27 04:53 | 5.24454 | -0.57936 | 18343 ft | 329 kts | 46° |
| 2026-04-27 04:53 | 5.25984 | -0.56270 | 17908 ft | 328 kts | 47° |
| 2026-04-27 04:53 | 5.27531 | -0.54587 | 17484 ft | 325 kts | 47° |
| 2026-04-27 04:54 | 5.29060 | -0.52922 | 17072 ft | 322 kts | 47° |
| 2026-04-27 04:54 | 5.30575 | -0.51273 | 16673 ft | 319 kts | 47° |
| 2026-04-27 04:54 | 5.32073 | -0.49642 | 16273 ft | 317 kts | 47° |
| 2026-04-27 04:54 | 5.33558 | -0.48025 | 15903 ft | 314 kts | 47° |
| 2026-04-27 04:55 | 5.35020 | -0.46434 | 15515 ft | 311 kts | 47° |
| 2026-04-27 04:55 | 5.36483 | -0.44841 | 15138 ft | 309 kts | 47° |
| 2026-04-27 04:55 | 5.37939 | -0.43254 | 14756 ft | 307 kts | 47° |
| 2026-04-27 04:55 | 5.39367 | -0.41699 | 14381 ft | 305 kts | 48° |
| 2026-04-27 04:56 | 5.40804 | -0.40134 | 14005 ft | 303 kts | 48° |
| 2026-04-27 04:56 | 5.42230 | -0.38581 | 13607 ft | 302 kts | 48° |
| 2026-04-27 04:56 | 5.43651 | -0.37033 | 13183 ft | 300 kts | 48° |
| 2026-04-27 04:56 | 5.45059 | -0.35499 | 12780 ft | 297 kts | 48° |
| 2026-04-27 04:57 | 5.46457 | -0.33976 | 12399 ft | 295 kts | 49° |
| 2026-04-27 04:57 | 5.47838 | -0.32471 | 12019 ft | 292 kts | 49° |
| 2026-04-27 04:57 | 5.49194 | -0.30994 | 11656 ft | 289 kts | 49° |
| 2026-04-27 04:57 | 5.50555 | -0.29510 | 11286 ft | 286 kts | 49° |
| 2026-04-27 04:58 | 5.51900 | -0.28044 | 10924 ft | 284 kts | 49° |
| 2026-04-27 04:58 | 5.53237 | -0.26587 | 10562 ft | 282 kts | 49° |
| 2026-04-27 04:58 | 5.54546 | -0.25160 | 10209 ft | 279 kts | 49° |
| 2026-04-27 04:58 | 5.55860 | -0.23727 | 9851 ft | 278 kts | 49° |
| 2026-04-27 04:59 | 5.57158 | -0.22312 | 9457 ft | 273 kts | 49° |
| 2026-04-27 04:59 | 5.58433 | -0.20921 | 9079 ft | 265 kts | 49° |
| 2026-04-27 04:59 | 5.59666 | -0.19576 | 8739 ft | 260 kts | 49° |
| 2026-04-27 04:59 | 5.60877 | -0.18255 | 8410 ft | 259 kts | 49° |
| 2026-04-27 05:00 | 5.62092 | -0.16930 | 8071 ft | 257 kts | 49° |
| 2026-04-27 05:00 | 5.63311 | -0.15602 | 7760 ft | 256 kts | 50° |
| 2026-04-27 05:00 | 5.64452 | -0.14230 | 7438 ft | 255 kts | 53° |
| 2026-04-27 05:00 | 5.65546 | -0.12835 | 7111 ft | 254 kts | 53° |
| 2026-04-27 05:01 | 5.66637 | -0.11436 | 6772 ft | 254 kts | 53° |
| 2026-04-27 05:01 | 5.67728 | -0.10042 | 6436 ft | 254 kts | 53° |
| 2026-04-27 05:01 | 5.68812 | -0.08663 | 6081 ft | 255 kts | 53° |
| 2026-04-27 05:01 | 5.69912 | -0.07270 | 5735 ft | 255 kts | 53° |
| 2026-04-27 05:02 | 5.71016 | -0.05872 | 5396 ft | 254 kts | 53° |
| 2026-04-27 05:02 | 5.72117 | -0.04480 | 5057 ft | 254 kts | 53° |
| 2026-04-27 05:02 | 5.74831 | -0.02326 | 4386 ft | 256 kts | 14° |
| 2026-04-27 05:03 | 5.76590 | -0.02314 | 4157 ft | 252 kts | 347° |
| 2026-04-27 05:03 | 5.78134 | -0.03042 | 4039 ft | 243 kts | 321° |
| 2026-04-27 05:03 | 5.79176 | -0.04293 | 3935 ft | 233 kts | 295° |
| 2026-04-27 05:03 | 5.79599 | -0.05817 | 3830 ft | 221 kts | 271° |
| 2026-04-27 05:04 | 5.79394 | -0.07296 | 3735 ft | 209 kts | 247° |
| 2026-04-27 05:04 | 5.78693 | -0.08580 | 3634 ft | 211 kts | 231° |
| 2026-04-27 05:04 | 5.77605 | -0.09496 | 3461 ft | 206 kts | 205° |
| 2026-04-27 05:04 | 5.76308 | -0.10139 | 3196 ft | 208 kts | 204° |
| 2026-04-27 05:05 | 5.74991 | -0.10729 | 2939 ft | 207 kts | 202° |
| 2026-04-27 05:05 | 5.73658 | -0.11285 | 2676 ft | 207 kts | 201° |
| 2026-04-27 05:05 | 5.72328 | -0.11834 | 2432 ft | 205 kts | 201° |
| 2026-04-27 05:05 | 5.71028 | -0.12372 | 2156 ft | 197 kts | 202° |
| 2026-04-27 05:06 | 5.69800 | -0.12881 | 1902 ft | 184 kts | 202° |
| 2026-04-27 05:06 | 5.68655 | -0.13354 | 1678 ft | 171 kts | 202° |
| 2026-04-27 05:06 | 5.67605 | -0.13790 | 1442 ft | 159 kts | 202° |
| 2026-04-27 05:06 | 5.66603 | -0.14204 | 1256 ft | 154 kts | 202° |
| 2026-04-27 05:07 | 5.65617 | -0.14613 | 1071 ft | 155 kts | 202° |
| 2026-04-27 05:07 | 5.64631 | -0.15024 | 904 ft | 151 kts | 204° |
| 2026-04-27 05:07 | 5.63661 | -0.15430 | 709 ft | 150 kts | 202° |
| 2026-04-27 05:07 | 5.62712 | -0.15822 | 502 ft | 150 kts | 202° |
| 2026-04-27 05:08 | 5.61753 | -0.16214 | 304 ft | 147 kts | 204° |
| 2026-04-27 05:08 | 5.60853 | -0.16587 | 223 ft | 117 kts | 202° |
| 2026-04-27 05:08 | 5.60272 | -0.16826 | 211 ft | 79 kts | 202° |
| 2026-04-27 05:08 | 5.59894 | -0.17037 | 204 ft | 38 kts | 233° |
| 2026-04-27 05:09 | 5.59819 | -0.17148 | 205 ft | 9 kts | 261° |
| 2026-04-27 05:09 | 5.59853 | -0.17197 | 209 ft | 9 kts | 343° |
| 2026-04-27 05:09 | 5.59914 | -0.17182 | 206 ft | 10 kts | 22° |
| 2026-04-27 05:09 | 5.59989 | -0.17151 | 208 ft | 14 kts | 22° |
| 2026-04-27 05:10 | 5.60092 | -0.17109 | 206 ft | 18 kts | 23° |
| 2026-04-27 05:10 | 5.60211 | -0.17059 | 212 ft | 19 kts | 22° |
| 2026-04-27 05:10 | 5.60336 | -0.17008 | 215 ft | 20 kts | 22° |
| 2026-04-27 05:10 | 5.60468 | -0.16953 | 219 ft | 18 kts | 22° |
| 2026-04-27 05:11 | 5.60567 | -0.16913 | 220 ft | 9 kts | 22° |
| 2026-04-27 05:11 | 5.60625 | -0.16890 | 220 ft | 9 kts | 22° |
| 2026-04-27 05:11 | 5.60686 | -0.16861 | 220 ft | 11 kts | 25° |
| 2026-04-27 05:11 | 5.60754 | -0.16845 | 221 ft | 10 kts | 326° |
| 2026-04-27 05:12 | 5.60738 | -0.16896 | 222 ft | 6 kts | 211° |
| 2026-04-27 05:12 | 5.60722 | -0.16902 | 221 ft | 0 kts | 200° |
| 2026-04-27 05:12 | 5.60715 | -0.16905 | 223 ft | 3 kts | 200° |
| 2026-04-27 05:13 | 5.60703 | -0.16909 | 222 ft | 0 kts | 200° |